Flight Track Log - Related Links

Times and Time Zones

All times are in EDT time to prevent confusion due to time zone crossing. See the DAL268 flight status page for this flight to view local times or setup timezone preferences in your user account.

Time Position Orientation Groundspeed Altitude Reporting Facility
EDT Latitude Longitude Course Direction KTS MPH feet Rate Location/Type
Sat 11:59:12 PM 40.6370 -73.7800 264° West  Level FlightAware ADS-B
Sun 12:05:00 AM 40.5287 -73.4527 114° Southeast  Level FlightAware Approximate
Sun 12:07:00 AM 40.5315 -73.4612 114° Southeast  Level FlightAware Approximate
Sun 12:08:00 AM 40.4796 -73.2925 123° Southeast  Level FlightAware Approximate
Sun 12:09:00 AM 40.4245 -73.1239 119° Southeast  Level FlightAware Approximate
Sun 12:10:00 AM 40.3869 -72.9525 72° East  Level FlightAware Approximate
Sun 12:11:00 AM 40.4271 -72.7751 72° East  Level FlightAware Approximate
Sun 12:12:00 AM 40.4644 -72.5925 72° East  Level FlightAware Approximate
Sun 12:20:26 AM 40.6420 -73.7700 211° Southwest 90 104  Level FlightAware ADS-B
Sun 12:21:06 AM 40.6180 -73.7890 211° Southwest 179 206 100 800 Climbing FlightAware ADS-B
Sun 12:21:26 AM 40.6030 -73.8000 209° Southwest 182 209 800 1,800 Climbing FlightAware ADS-B
Sun 12:21:46 AM 40.5880 -73.8120 211° Southwest 193 222 1,300 1,297 Climbing FlightAware ADS-B
Sun 12:22:03 AM 40.5730 -73.8230 209° Southwest 211 243 1,600 1,000 Climbing FlightAware ADS-B
Sun 12:22:16 AM 40.5600 -73.8270 193° South 225 259 1,800 1,024 Climbing FlightAware ADS-B
Sun 12:22:44 AM 40.5310 -73.8190 168° South 246 283 2,300 900 Climbing FlightAware ADS-B
Sun 12:22:56 AM 40.5190 -73.8090 148° Southeast 258 297 2,400 900 Climbing FlightAware ADS-B
Sun 12:23:04 AM 40.5120 -73.8000 136° Southeast 262 302 2,600 1,680 Climbing FlightAware ADS-B
Sun 12:23:21 AM 40.5010 -73.7790 125° Southeast 267 307 3,100 1,833 Climbing FlightAware ADS-B
Sun 12:23:40 AM 40.4892 -73.7506 119° Southeast 280 322 3,700 2,276 Climbing FlightAware ADS-B
Sun 12:23:50 AM 40.4831 -73.7337 115° Southeast 280 322 4,200 2,625 Climbing FlightAware ADS-B
Sun 12:23:56 AM 40.4806 -73.7243 109° East 278 320 4,400 2,667 Climbing FlightAware ADS-B
Sun 12:23:59 AM 40.4796 -73.7193 105° East 278 320 4,600 2,571 Climbing FlightAware ADS-B
Sun 12:24:03 AM 40.4789 -73.7127 98° East 278 320 4,700 2,250 Climbing FlightAware ADS-B
Sun 12:24:07 AM 40.4788 -73.7059 91° East 279 321 4,900 2,000 Climbing FlightAware ADS-B
Sun 12:24:12 AM 40.4794 -73.6974 85° East 280 322 5,000 1,800 Climbing FlightAware ADS-B
Sun 12:24:17 AM 40.4807 -73.6888 79° East 281 323 5,200 2,455 Climbing FlightAware ADS-B
Sun 12:24:34 AM 40.4857 -73.6605 77° East 284 327 5,900 2,438 Climbing FlightAware ADS-B
Sun 12:24:49 AM 40.4908 -73.6351 75° East 289 333 6,500 1,935 Climbing FlightAware ADS-B
Sun 12:25:05 AM 40.4960 -73.6074 76° East 296 341 6,900 1,714 Climbing FlightAware ADS-B
Sun 12:25:10 AM 40.4974 -73.5987 78° East 299 344 7,100 1,800 Climbing FlightAware ADS-B
Sun 12:25:15 AM 40.4982 -73.5896 83° East 301 346 7,200 1,200 Climbing FlightAware ADS-B
Sun 12:25:20 AM 40.4979 -73.5804 92° East 303 349 7,300 2,000 Climbing FlightAware ADS-B
Sun 12:25:24 AM 40.4971 -73.5731 98° East 304 350 7,500 2,100 Climbing FlightAware ADS-B
Sun 12:25:40 AM 40.4933 -73.5458 100° East 306 352 8,000 1,935 Climbing FlightAware ADS-B
Sun 12:25:55 AM 40.4886 -73.5165 102° East 311 358 8,500 2,129 Climbing FlightAware ADS-B
Sun 12:26:11 AM 40.4837 -73.4868 102° East 314 361 9,100 2,063 Climbing FlightAware ADS-B
Sun 12:26:27 AM 40.4783 -73.4567 103° East 319 367 9,600 1,435 Climbing FlightAware ADS-B
Sun 12:26:57 AM 40.4674 -73.3989 104° East 338 389 10,200 1,200 Climbing FlightAware ADS-B
Sun 12:27:27 AM 40.4551 -73.3366 105° East 363 418 10,800 1,082 Climbing FlightAware ADS-B
Sun 12:27:58 AM 40.4420 -73.2702 105° East 387 445 11,300 1,279 Climbing FlightAware ADS-B
Sun 12:28:28 AM 40.4283 -73.1977 104° East 403 464 12,100 1,900 Climbing FlightAware ADS-B
Sun 12:28:58 AM 40.4142 -73.1256 104° East 413 475 13,200 2,066 Climbing FlightAware ADS-B
Sun 12:29:29 AM 40.3998 -73.0518 104° East 422 486 14,200 2,049 Climbing FlightAware ADS-B
Sun 12:29:39 AM 40.3955 -73.0244 102° East 425 489 14,600 2,118 Climbing FlightAware ADS-B
Sun 12:29:46 AM 40.3943 -73.0063 95° East 427 491 14,800 2,000 Climbing FlightAware ADS-B
Sun 12:29:57 AM 40.3954 -72.9778 87° East 429 494 15,200 2,000 Climbing FlightAware ADS-B
Sun 12:30:04 AM 40.3976 -72.9596 81° East 431 496 15,400 1,765 Climbing FlightAware ADS-B
Sun 12:30:14 AM 40.4035 -72.9346 73° East 433 498 15,700 1,895 Climbing FlightAware ADS-B
Sun 12:30:23 AM 40.4110 -72.9129 66° East 435 501 16,000 1,846 Climbing FlightAware ADS-B
Sun 12:30:53 AM 40.4411 -72.8427 61° Northeast 447 514 16,900 1,770 Climbing FlightAware ADS-B
Sun 12:31:24 AM 40.4735 -72.7716 59° Northeast 456 525 17,800 1,770 Climbing FlightAware ADS-B
Sun 12:31:54 AM 40.5065 -72.6967 60° Northeast 464 534 18,700 1,672 Climbing FlightAware ADS-B
Sun 12:32:25 AM 40.5398 -72.6201 60° Northeast 473 544 19,500 1,452 Climbing FlightAware ADS-B
Sun 12:32:56 AM 40.5741 -72.5416 60° Northeast 484 557 20,200 1,524 Climbing FlightAware ADS-B
Sun 12:33:28 AM 40.6093 -72.4589 61° Northeast 491 565 21,100 1,645 Climbing FlightAware ADS-B
Sun 12:33:58 AM 40.6434 -72.3807 60° Northeast 496 571 21,900 1,548 Climbing FlightAware ADS-B
Sun 12:34:30 AM 40.6797 -72.2962 60° Northeast 501 577 22,700 1,477 Climbing FlightAware ADS-B
Sun 12:35:03 AM 40.7179 -72.2078 60° Northeast 508 585 23,500 1,391 Climbing FlightAware ADS-B
Sun 12:35:39 AM 40.7603 -72.1099 60° Northeast 512 589 24,300 1,371 Climbing FlightAware ADS-B
Sun 12:36:13 AM 40.8002 -72.0164 61° Northeast 522 601 25,100 1,164 Climbing FlightAware ADS-B
Sun 12:36:46 AM 40.8392 -71.9239 61° Northeast 532 612 25,600 971 Climbing FlightAware ADS-B
Sun 12:37:21 AM 40.8821 -71.8238 60° Northeast 541 623 26,200 909 Climbing FlightAware ADS-B
Sun 12:37:52 AM 40.9197 -71.7335 61° Northeast 550 633 26,600 923 Climbing FlightAware ADS-B
Sun 12:38:26 AM 40.9623 -71.6330 61° Northeast 557 641 27,200 1,068 Climbing FlightAware ADS-B
Sun 12:39:05 AM 41.0119 -71.5158 61° Northeast 564 649 27,900 1,068 Climbing FlightAware ADS-B
Sun 12:39:39 AM 41.0554 -71.4128 61° Northeast 568 654 28,500 1,034 Climbing FlightAware ADS-B
Sun 12:40:32 AM 41.1210 -71.2560 61° Northeast 572 658 29,400 1,227 Climbing FlightAware ADS-B
Sun 12:41:07 AM 41.1670 -71.1460 61° Northeast 570 656 30,300 1,457 Climbing FlightAware ADS-B
Sun 12:41:42 AM 41.2100 -71.0420 61° Northeast 567 652 31,100 1,200 Climbing FlightAware ADS-B
Sun 12:42:22 AM 41.2550 -70.9320 61° Northeast 567 652 31,800 706 Climbing FlightAware ADS-B
Sun 12:43:07 AM 41.3130 -70.7910 61° Northeast 568 654 32,100 900 Climbing FlightAware ADS-B
Sun 12:43:42 AM 41.3600 -70.6780 61° Northeast 571 657 33,000 614 Climbing FlightAware ADS-B
Sun 12:44:35 AM 41.4220 -70.5270 61° Northeast 571 657 33,000  Level FlightAware ADS-B
Sun 12:45:11 AM 41.4610 -70.4330 61° Northeast 571 657 33,000  Level FlightAware ADS-B
Sun 12:45:56 AM 41.5200 -70.2810 63° Northeast 564 649 33,000  Level FlightAware ADS-B
Sun 12:46:52 AM 41.5900 -70.1080 62° Northeast 560 644 33,000  Level FlightAware ADS-B
Sun 12:47:29 AM 41.6390 -69.9850 62° Northeast 561 646 33,000  Level FlightAware ADS-B
Sun 12:48:13 AM 41.6960 -69.8400 62° Northeast 565 650 33,000  Level FlightAware ADS-B
Sun 12:49:05 AM 41.7520 -69.6970 62° Northeast 566 651 33,000  Level FlightAware ADS-B
Sun 12:49:56 AM 41.8210 -69.5200 62° Northeast 568 654 33,000  Level FlightAware ADS-B
Sun 12:50:41 AM 41.8720 -69.3850 63° Northeast 569 655 33,000  Level FlightAware ADS-B
Sun 12:51:16 AM 41.9180 -69.2660 63° Northeast 569 655 33,000  Level FlightAware ADS-B
Sun 12:51:56 AM 41.9670 -69.1410 62° Northeast 568 654 33,000  Level FlightAware ADS-B
Sun 12:52:26 AM 42.0030 -69.0470 63° Northeast 569 655 33,000  Level FlightAware ADS-B
Sun 12:53:01 AM 42.0440 -68.9390 63° Northeast 570 656 33,000  Level FlightAware ADS-B
Sun 12:53:36 AM 42.0870 -68.8260 63° Northeast 570 656 33,000  Level FlightAware ADS-B
Sun 12:54:16 AM 42.1340 -68.7030 63° Northeast 570 656 33,000  Level FlightAware ADS-B
Sun 12:54:46 AM 42.1670 -68.6140 63° Northeast 568 654 33,000  Level FlightAware ADS-B
Sun 12:55:21 AM 42.2090 -68.5040 63° Northeast 566 651 33,000  Level FlightAware ADS-B
Sun 12:56:11 AM 42.2710 -68.3430 62° Northeast 561 646 33,000  Level FlightAware ADS-B
Sun 12:56:46 AM 42.3120 -68.2300 64° Northeast 562 647 33,000  Level FlightAware ADS-B
Sun 12:57:24 AM 42.3460 -68.1330 65° Northeast 561 646 33,000  Level FlightAware ADS-B
Sun 12:58:04 AM 42.3970 -67.9970 63° Northeast 561 646 33,000  Level FlightAware ADS-B
Sun 12:58:41 AM 42.4330 -67.8980 64° Northeast 561 646 33,000  Level FlightAware ADS-B
Sun 12:59:17 AM 42.4670 -67.8010 65° Northeast 561 646 33,000  Level FlightAware ADS-B
Sun 12:59:53 AM 42.5020 -67.7040 64° Northeast 561 646 33,000  Level FlightAware ADS-B
Sun 01:00:29 AM 42.5370 -67.6070 64° Northeast 561 646 33,000  Level FlightAware ADS-B
Sun 01:01:05 AM 42.5720 -67.5110 64° Northeast 561 646 33,000  Level FlightAware ADS-B
Sun 01:01:41 AM 42.6070 -67.4140 64° Northeast 561 646 33,000  Level FlightAware ADS-B
Sun 01:02:17 AM 42.6410 -67.3170 64° Northeast 561 646 33,000  Level FlightAware ADS-B
Sun 01:02:53 AM 42.6760 -67.2190 64° Northeast 561 646 33,000  Level FlightAware ADS-B
Sun 01:03:29 AM 42.7110 -67.1220 64° Northeast 561 646 33,000  Level FlightAware ADS-B
Sun 01:04:08 AM 42.8150 -66.8400 63° Northeast 33,000  Level FlightAware ADS-B
Sun 01:05:45 AM 42.9240 -66.5320 64° Northeast 549 632 33,000  Level FlightAware ADS-B
Sun 01:06:25 AM 42.9620 -66.4210 65° Northeast 549 632 33,000  Level FlightAware ADS-B
Sun 01:06:56 AM 43.0020 -66.3090 64° Northeast 547 629 33,000  Level FlightAware ADS-B
Sun 01:07:31 AM 43.0400 -66.1960 65° Northeast 546 628 33,000  Level FlightAware ADS-B
Sun 01:08:06 AM 43.0770 -66.0900 64° Northeast 544 626 33,000  Level FlightAware ADS-B
Sun 01:08:41 AM 43.1150 -65.9770 65° Northeast 542 624 33,000  Level FlightAware ADS-B
Sun 01:09:16 AM 43.1520 -65.8710 64° Northeast 544 626 33,000  Level FlightAware ADS-B
Sun 01:09:51 AM 43.1900 -65.7590 65° Northeast 541 623 33,000  Level FlightAware ADS-B
Sun 01:10:26 AM 43.2260 -65.6540 65° Northeast 538 619 33,000  Level FlightAware ADS-B
Sun 01:11:01 AM 43.2630 -65.5430 65° Northeast 536 617 33,000  Level FlightAware ADS-B
Sun 01:11:36 AM 43.2990 -65.4380 65° Northeast 536 617 33,000  Level FlightAware ADS-B
Sun 01:12:11 AM 43.3350 -65.3270 66° East 535 616 33,000  Level FlightAware ADS-B
Sun 01:12:46 AM 43.3710 -65.2220 65° Northeast 532 612 33,000  Level FlightAware ADS-B
Sun 01:13:21 AM 43.4070 -65.1100 66° East 532 612 33,000  Level FlightAware ADS-B
Sun 01:13:56 AM 43.4430 -65.0050 65° Northeast 532 612 33,000  Level FlightAware ADS-B
Sun 01:14:33 AM 43.4790 -64.8930 66° East 532 612 33,000  Level FlightAware ADS-B
Sun 01:15:06 AM 43.5140 -64.7880 65° Northeast 533 613 33,000  Level FlightAware ADS-B
Sun 01:15:41 AM 43.5490 -64.6850 65° Northeast 533 613 33,000  Level FlightAware ADS-B
Sun 01:16:14 AM 43.5820 -64.5820 66° East 537 618 33,000  Level FlightAware ADS-B
Sun 01:16:49 AM 43.6190 -64.4700 65° Northeast 537 618 33,000  Level FlightAware ADS-B
Sun 01:17:29 AM 43.6590 -64.3440 66° East 537 618 33,000  Level FlightAware ADS-B
Sun 01:17:59 AM 43.6900 -64.2480 66° East 536 617 33,000  Level FlightAware ADS-B
Sun 01:18:34 AM 43.7230 -64.1440 66° East 535 616 33,000  Level FlightAware ADS-B
Sun 01:19:14 AM 43.7620 -64.0230 66° East 534 615 33,000  Level FlightAware ADS-B
Sun 01:19:44 AM 43.7930 -63.9260 66° East 534 615 33,000  Level FlightAware ADS-B
Sun 01:20:19 AM 43.8290 -63.8100 67° East 533 613 33,000  Level FlightAware ADS-B
Sun 01:20:54 AM 43.8630 -63.7040 66° East 534 615 33,000  Level FlightAware ADS-B
Sun 01:21:34 AM 43.9030 -63.5760 67° East 534 615 33,000  Level FlightAware ADS-B
Sun 01:22:04 AM 43.9320 -63.4820 67° East 533 613 33,000  Level FlightAware ADS-B
Sun 01:22:38 AM 43.9650 -63.3750 67° East 531 611 33,000  Level FlightAware ADS-B
Sun 01:23:19 AM 44.0040 -63.2500 67° East 531 611 33,000  Level FlightAware ADS-B
Sun 01:23:49 AM 44.0330 -63.1560 67° East 532 612 33,000  Level FlightAware ADS-B
Sun 01:24:24 AM 44.0660 -63.0500 67° East 532 612 33,000  Level FlightAware ADS-B
Sun 01:24:59 AM 44.1020 -62.9330 67° East 533 613 33,000  Level FlightAware ADS-B
Sun 01:25:34 AM 44.1330 -62.8290 67° East 534 615 33,000  Level FlightAware ADS-B
Sun 01:26:09 AM 44.1690 -62.7120 67° East 534 615 33,000  Level FlightAware ADS-B
Sun 01:26:44 AM 44.2020 -62.6010 67° East 533 613 33,000  Level FlightAware ADS-B
Sun 01:27:20 AM 44.2360 -62.4910 67° East 533 613 33,000  Level FlightAware ADS-B
Sun 01:27:55 AM 44.2680 -62.3830 67° East 533 613 33,000  Level FlightAware ADS-B
Sun 01:28:31 AM 44.3010 -62.2720 67° East 531 611 33,000  Level FlightAware ADS-B
Sun 01:29:06 AM 44.3330 -62.1640 67° East 531 611 33,000  Level FlightAware ADS-B
Sun 01:29:43 AM 44.3650 -62.0530 68° East 532 612 33,000  Level FlightAware ADS-B
Sun 01:30:19 AM 44.3930 -61.9550 68° East 532 612 33,000  Level FlightAware ADS-B
Sun 01:30:55 AM 44.4220 -61.8580 67° East 532 612 33,000  Level FlightAware ADS-B
Sun 01:31:31 AM 44.4500 -61.7600 68° East 532 612 33,000  Level FlightAware ADS-B
Sun 01:32:07 AM 44.4780 -61.6620 68° East 532 612 33,000  Level FlightAware ADS-B
Sun 01:32:43 AM 44.5060 -61.5640 68° East 532 612 33,000  Level FlightAware ADS-B
Sun 01:33:19 AM 44.5340 -61.4660 68° East 532 612 33,000  Level FlightAware ADS-B
Sun 01:33:55 AM 44.5630 -61.3680 67° East 532 612 33,000  Level FlightAware ADS-B
Sun 01:34:31 AM 44.5910 -61.2700 68° East 532 612 33,000  Level FlightAware ADS-B
Sun 01:35:07 AM 44.6190 -61.1720 68° East 532 612 33,000  Level FlightAware ADS-B
Sun 01:35:43 AM 44.6470 -61.0740 68° East 532 612 33,000  Level FlightAware ADS-B
Sun 01:36:20 AM 44.6760 -60.9730 68° East 532 612 33,000  Level FlightAware ADS-B
Sun 01:36:55 AM 44.7710 -60.6390 68° East 539 620 33,000  Level FlightAware ADS-B
Sun 01:37:27 AM 44.8000 -60.5350 69° East 538 619 33,000  Level FlightAware ADS-B
Sun 01:38:07 AM 44.8350 -60.4080 69° East 538 619 33,000  Level FlightAware ADS-B
Sun 01:38:39 AM 44.8660 -60.3000 68° East 538 619 33,000  Level FlightAware ADS-B
Sun 01:39:15 AM 44.8970 -60.1860 69° East 537 618 33,000  Level FlightAware ADS-B
Sun 01:39:53 AM 44.9310 -60.0580 69° East 536 617 33,000  Level FlightAware ADS-B
Sun 01:40:25 AM 44.9590 -59.9570 69° East 537 618 33,000  Level FlightAware ADS-B
Sun 01:41:01 AM 44.9910 -59.8360 69° East 538 619 33,000  Level FlightAware ADS-B
Sun 01:41:37 AM 45.0230 -59.7170 69° East 539 620 33,000  Level FlightAware ADS-B
Sun 01:42:09 AM 45.0510 -59.6150 69° East 540 621 33,000  Level FlightAware ADS-B
Sun 01:42:45 AM 45.0830 -59.4930 70° East 541 623 33,000  Level FlightAware ADS-B
Sun 01:43:21 AM 45.1140 -59.3760 69° East 542 624 33,000  Level FlightAware ADS-B
Sun 01:43:53 AM 45.1430 -59.2700 69° East 543 625 33,000  Level FlightAware ADS-B
Sun 01:44:29 AM 45.1740 -59.1470 70° East 544 626 33,000  Level FlightAware ADS-B
Sun 01:45:05 AM 45.2060 -59.0260 69° East 545 627 33,000  Level FlightAware ADS-B
Sun 01:45:41 AM 45.2360 -58.9080 70° East 547 629 33,000  Level FlightAware ADS-B
Sun 01:46:17 AM 45.2680 -58.7840 70° East 547 629 33,000  Level FlightAware ADS-B
Sun 01:46:49 AM 45.2960 -58.6760 70° East 547 629 33,000  Level FlightAware ADS-B
Sun 01:47:25 AM 45.3280 -58.5540 70° East 548 631 33,000  Level FlightAware ADS-B
Sun 01:47:59 AM 45.3570 -58.4390 70° East 550 633 33,000  Level FlightAware ADS-B
Sun 01:48:37 AM 45.3890 -58.3130 70° East 551 634 33,000  Level FlightAware ADS-B
Sun 01:49:13 AM 45.4200 -58.1900 70° East 553 636 33,000  Level FlightAware ADS-B
Sun 01:49:45 AM 45.4480 -58.0770 71° East 553 636 33,000  Level FlightAware ADS-B
Sun 01:50:21 AM 45.4790 -57.9530 70° East 554 638 33,000  Level FlightAware ADS-B
Sun 01:50:57 AM 45.5090 -57.8320 70° East 555 639 33,000  Level FlightAware ADS-B
Sun 01:51:38 AM 45.5410 -57.7040 70° East 555 639 33,000  Level FlightAware ADS-B
Sun 01:52:14 AM 45.5680 -57.5990 70° East 555 639 33,000  Level FlightAware ADS-B
Sun 01:52:50 AM 45.5950 -57.4930 70° East 555 639 33,000  Level FlightAware ADS-B
Sun 01:53:26 AM 45.6220 -57.3880 70° East 555 639 33,000  Level FlightAware ADS-B
Sun 01:54:02 AM 45.6480 -57.2820 71° East 555 639 33,000  Level FlightAware ADS-B
Sun 01:54:48 AM 45.6830 -57.1470 70° East 555 639 33,000  Level FlightAware ADS-B
Sun 01:55:24 AM 45.7100 -57.0410 70° East 555 639 33,000  Level FlightAware ADS-B
Sun 01:55:56 AM 45.7610 -56.7890 74° East 565 650 33,000  Level FlightAware ADS-B
Sun 01:56:30 AM 45.7890 -56.6680 72° East 568 654 33,000 273 Level FlightAware ADS-B
Sun 01:57:24 AM 45.8280 -56.4830 73° East 571 657 33,400 558 Climbing FlightAware ADS-B
Sun 01:57:56 AM 45.8510 -56.3720 73° East 572 658 33,800 545 Climbing FlightAware ADS-B
Sun 01:58:30 AM 45.8800 -56.2320 73° East 577 664 34,000 171 Climbing FlightAware ADS-B
Sun 01:59:06 AM 45.9090 -56.1000 72° East 578 665 34,000  Level FlightAware ADS-B
Sun 01:59:42 AM 45.9360 -55.9680 74° East 578 665 34,000  Level FlightAware ADS-B
Sun 02:00:14 AM 45.9610 -55.8500 73° East 579 666 34,000  Level FlightAware ADS-B
Sun 02:00:52 AM 45.9900 -55.7100 73° East 580 667 34,000  Level FlightAware ADS-B
Sun 02:01:24 AM 46.0140 -55.5910 74° East 581 669 34,000  Level FlightAware ADS-B
Sun 02:02:00 AM 46.0410 -55.4580 74° East 583 671 34,000  Level FlightAware ADS-B
Sun 02:02:34 AM 46.0660 -55.3380 73° East 585 673 34,000  Level FlightAware ADS-B
Sun 02:03:10 AM 46.0930 -55.2040 74° East 585 673 34,000  Level FlightAware ADS-B
Sun 02:03:45 AM 46.1200 -55.0690 74° East 586 674 34,000  Level FlightAware ADS-B
Sun 02:04:30 AM 46.1540 -54.8960 74° East 589 678 34,000  Level FlightAware ADS-B
Sun 02:05:10 AM 46.1830 -54.7440 75° East 590 679 34,000  Level FlightAware ADS-B
Sun 02:05:46 AM 46.2100 -54.6080 74° East 592 681 34,000  Level FlightAware ADS-B
Sun 02:06:18 AM 46.2340 -54.4820 75° East 594 684 34,000  Level FlightAware ADS-B
Sun 02:06:58 AM 46.2630 -54.3330 74° East 596 686 34,000  Level FlightAware ADS-B
Sun 02:07:30 AM 46.2860 -54.2140 74° East 598 688 34,000  Level FlightAware ADS-B
Sun 02:08:06 AM 46.3130 -54.0710 75° East 598 688 34,000  Level FlightAware ADS-B
Sun 02:08:42 AM 46.3400 -53.9280 75° East 598 688 34,000  Level FlightAware ADS-B
Sun 02:09:12 AM 46.3610 -53.8120 75° East 599 689 34,000  Level FlightAware ADS-B
Sun 02:09:50 AM 46.3880 -53.6650 75° East 600 690 34,000  Level FlightAware ADS-B
Sun 02:10:26 AM 46.4140 -53.5260 75° East 599 689 34,000  Level FlightAware ADS-B
Sun 02:10:58 AM 46.4370 -53.4020 75° East 599 689 34,000  Level FlightAware ADS-B
Sun 02:11:34 AM 46.4620 -53.2660 75° East 599 689 34,000  Level FlightAware ADS-B
Sun 02:12:10 AM 46.4870 -53.1220 76° East 598 688 34,000  Level FlightAware ADS-B
Sun 02:12:46 AM 46.5110 -52.9870 75° East 596 686 34,000  Level FlightAware ADS-B
Sun 02:13:35 AM 46.5450 -52.7970 75° East 594 684 34,000  Level FlightAware ADS-B
Sun 02:14:10 AM 46.5700 -52.6580 75° East 594 684 34,000  Level FlightAware ADS-B
Sun 02:14:42 AM 46.5910 -52.5350 76° East 592 681 34,000  Level FlightAware ADS-B
Sun 02:15:18 AM 46.6150 -52.4000 75° East 592 681 34,000  Level FlightAware ADS-B
Sun 02:15:54 AM 46.6380 -52.2610 76° East 592 681 34,000  Level FlightAware ADS-B
Sun 02:16:26 AM 46.6600 -52.1330 76° East 591 680 34,000  Level FlightAware ADS-B
Sun 02:17:02 AM 46.6830 -51.9990 76° East 589 678 34,000  Level FlightAware ADS-B
Sun 02:17:39 AM 46.7070 -51.8560 76° East 588 677 34,000  Level FlightAware ADS-B
Sun 02:18:12 AM 46.7280 -51.7260 77° East 588 677 34,000  Level FlightAware ADS-B
Sun 02:18:48 AM 46.7510 -51.5870 76° East 588 677 34,000  Level FlightAware ADS-B
Sun 02:19:24 AM 46.7740 -51.4480 76° East 589 678 34,000  Level FlightAware ADS-B
Sun 02:19:59 AM 46.7960 -51.3170 76° East 589 678 34,000  Level FlightAware ADS-B
Sun 02:20:34 AM 46.8180 -51.1780 77° East 587 676 34,000  Level FlightAware ADS-B
Sun 02:21:15 AM 46.8410 -51.0360 77° East 586 674 34,000  Level FlightAware ADS-B
Sun 02:22:06 AM 46.8710 -50.8430 77° East 583 671 34,000  Level FlightAware ADS-B
Sun 02:22:43 AM 46.8900 -50.7220 77° East 583 671 34,000  Level FlightAware ADS-B
Sun 02:23:19 AM 46.9090 -50.6050 77° East 583 671 34,000  Level FlightAware ADS-B
Sun 02:23:57 AM 46.9280 -50.4800 77° East 583 671 34,000  Level FlightAware ADS-B
Sun 02:24:34 AM 46.9470 -50.3590 77° East 583 671 34,000  Level FlightAware ADS-B
Sun 02:25:10 AM 46.9660 -50.2410 77° East 583 671 34,000  Level FlightAware ADS-B
Sun 02:25:46 AM 46.9840 -50.1240 77° East 583 671 34,000  Level FlightAware ADS-B
Sun 02:26:23 AM 47.0030 -50.0020 77° East 583 671 34,000  Level FlightAware ADS-B
Sun 02:26:59 AM 47.0220 -49.8840 77° East 583 671 34,000  Level FlightAware ADS-B
Sun 02:27:36 AM 47.0410 -49.7630 77° East 583 671 34,000  Level FlightAware ADS-B
Sun 02:28:12 AM 47.0590 -49.6450 77° East 583 671 34,000  Level FlightAware ADS-B
Sun 02:28:48 AM 47.0780 -49.5270 77° East 583 671 34,000  Level FlightAware ADS-B
Sun 02:29:24 AM 47.0970 -49.4090 77° East 583 671 34,000  Level FlightAware ADS-B
Sun 02:30:00 AM 47.1150 -49.2910 77° East 583 671 34,000  Level FlightAware ADS-B
Sun 02:30:37 AM 47.1340 -49.1690 77° East 583 671 34,000  Level FlightAware ADS-B
Sun 02:31:13 AM 47.1530 -49.0510 77° East 583 671 34,000  Level FlightAware ADS-B
Sun 02:32:32 AM 47.2000 -48.3667 77° East 580 667 34,000  Level Gander Center
Sun 02:33:32 AM 47.2333 -48.1333 78° East 590 679 34,000  Level Gander Center
Sun 02:34:32 AM 47.2667 -47.9333 76° East 580 667 34,000  Level Gander Center
Sun 02:35:32 AM 47.3000 -47.6667 79° East 580 667 34,000  Level Gander Center
Sun 02:36:32 AM 47.3167 -47.4333 84° East 590 679 34,000  Level Gander Center
Sun 02:37:32 AM 47.3333 -47.2000 84° East 580 667 34,000  Level Gander Center
Sun 02:38:32 AM 47.3833 -46.9667 72° East 590 679 34,000  Level Gander Center
Sun 02:39:32 AM 47.4000 -46.7500 83° East 590 679 34,000 Level Gander Center
Sun 02:41:00 AM 47.4466 -46.4254 78° East  Level FlightAware Approximate
Sun 02:48:00 AM 47.6162 -44.8578 81° East  Level FlightAware Approximate
Sun 02:49:00 AM 47.6381 -44.6330 82° East  Level FlightAware Approximate
Sun 02:50:00 AM 47.6595 -44.4080 82° East  Level FlightAware Approximate
Sun 02:51:00 AM 47.6805 -44.1828 82° East  Level FlightAware Approximate
Sun 02:52:00 AM 47.7011 -43.9574 82° East  Level FlightAware Approximate
Sun 02:53:00 AM 47.7214 -43.7319 82° East  Level FlightAware Approximate
Sun 02:54:00 AM 47.7417 -43.5063 82° East  Level FlightAware Approximate
Sun 02:55:00 AM 47.7617 -43.2806 82° East  Level FlightAware Approximate
Sun 02:56:00 AM 47.7812 -43.0546 83° East  Level FlightAware Approximate
Sun 02:57:00 AM 47.8002 -42.8285 83° East  Level FlightAware Approximate
Sun 02:58:00 AM 47.8188 -42.6023 83° East  Level FlightAware Approximate
Sun 02:59:00 AM 47.8370 -42.3759 83° East  Level FlightAware Approximate
Sun 03:00:00 AM 47.8547 -42.1493 83° East  Level FlightAware Approximate
Sun 03:01:00 AM 47.8719 -41.9225 83° East  Level FlightAware Approximate
Sun 03:02:00 AM 47.8888 -41.6957 84° East  Level FlightAware Approximate
Sun 03:03:00 AM 47.9051 -41.4686 84° East  Level FlightAware Approximate
Sun 03:04:00 AM 47.9211 -41.2415 84° East  Level FlightAware Approximate
Sun 03:05:00 AM 47.9365 -41.0142 84° East  Level FlightAware Approximate
Sun 03:06:00 AM 47.9515 -40.7867 84° East  Level FlightAware Approximate
Sun 03:07:00 AM 47.9661 -40.5592 84° East  Level FlightAware Approximate
Sun 03:08:00 AM 47.9803 -40.3315 85° East  Level FlightAware Approximate
Sun 03:09:00 AM 47.9939 -40.1036 85° East  Level FlightAware Approximate
Sun 03:10:00 AM 48.0174 -39.8780 78° East  Level FlightAware Approximate
Sun 03:11:00 AM 48.0489 -39.6540 78° East  Level FlightAware Approximate
Sun 03:12:00 AM 48.0800 -39.4297 78° East  Level FlightAware Approximate
Sun 03:13:00 AM 48.1106 -39.2051 78° East  Level FlightAware Approximate
Sun 03:14:00 AM 48.1408 -38.9803 79° East  Level FlightAware Approximate
Sun 03:15:00 AM 48.1706 -38.7552 79° East  Level FlightAware Approximate
Sun 03:16:00 AM 48.2000 -38.5298 79° East  Level FlightAware Approximate
Sun 03:17:00 AM 48.2289 -38.3042 79° East  Level FlightAware Approximate
Sun 03:18:00 AM 48.2573 -38.0783 79° East  Level FlightAware Approximate
Sun 03:19:00 AM 48.2853 -37.8522 79° East  Level FlightAware Approximate
Sun 03:20:00 AM 48.3129 -37.6258 80° East  Level FlightAware Approximate
Sun 03:21:00 AM 48.3400 -37.3992 80° East  Level FlightAware Approximate
Sun 03:22:00 AM 48.3657 -37.1805 80° East  Level FlightAware Approximate
Sun 03:23:00 AM 48.3910 -36.9617 80° East  Level FlightAware Approximate
Sun 03:24:00 AM 48.4159 -36.7426 80° East  Level FlightAware Approximate
Sun 03:25:00 AM 48.4404 -36.5233 80° East  Level FlightAware Approximate
Sun 03:26:00 AM 48.4645 -36.3037 81° East  Level FlightAware Approximate
Sun 03:27:00 AM 48.4890 -36.0842 80° East  Level FlightAware Approximate
Sun 03:28:00 AM 48.5133 -35.8646 80° East  Level FlightAware Approximate
Sun 03:29:00 AM 48.5371 -35.6446 81° East  Level FlightAware Approximate
Sun 03:30:00 AM 48.5605 -35.4245 81° East  Level FlightAware Approximate
Sun 03:31:00 AM 48.5835 -35.2043 81° East  Level FlightAware Approximate
Sun 03:32:00 AM 48.6061 -34.9837 81° East  Level FlightAware Approximate
Sun 03:33:00 AM 48.6282 -34.7631 81° East  Level FlightAware Approximate
Sun 03:34:00 AM 48.6499 -34.5422 81° East  Level FlightAware Approximate
Sun 03:35:00 AM 48.6712 -34.3211 82° East  Level FlightAware Approximate
Sun 03:36:00 AM 48.6921 -34.0998 82° East  Level FlightAware Approximate
Sun 03:37:00 AM 48.7126 -33.8784 82° East  Level FlightAware Approximate
Sun 03:38:00 AM 48.7326 -33.6568 82° East  Level FlightAware Approximate
Sun 03:39:00 AM 48.7522 -33.4350 82° East  Level FlightAware Approximate
Sun 03:40:00 AM 48.7714 -33.2130 82° East  Level FlightAware Approximate
Sun 03:41:00 AM 48.7902 -32.9908 83° East  Level FlightAware Approximate
Sun 03:42:00 AM 48.8085 -32.7686 83° East  Level FlightAware Approximate
Sun 03:43:00 AM 48.8264 -32.5461 83° East  Level FlightAware Approximate
Sun 03:44:00 AM 48.8439 -32.3235 83° East  Level FlightAware Approximate
Sun 03:45:00 AM 48.8609 -32.1007 83° East  Level FlightAware Approximate
Sun 03:46:00 AM 48.8775 -31.8778 83° East  Level FlightAware Approximate
Sun 03:47:00 AM 48.8937 -31.6547 84° East  Level FlightAware Approximate
Sun 03:48:00 AM 48.9094 -31.4315 84° East  Level FlightAware Approximate
Sun 03:49:00 AM 48.9248 -31.2082 84° East  Level FlightAware Approximate
Sun 03:50:00 AM 48.9396 -30.9851 84° East  Level FlightAware Approximate
Sun 03:51:00 AM 48.9540 -30.7618 84° East  Level FlightAware Approximate
Sun 03:52:00 AM 48.9680 -30.5385 84° East  Level FlightAware Approximate
Sun 03:53:00 AM 48.9816 -30.3150 85° East  Level FlightAware Approximate
Sun 03:54:00 AM 48.9948 -30.0914 85° East  Level FlightAware Approximate
Sun 03:55:00 AM 49.0181 -29.8701 78° East  Level FlightAware Approximate
Sun 03:56:00 AM 49.0484 -29.6502 78° East  Level FlightAware Approximate
Sun 03:57:00 AM 49.0782 -29.4301 78° East  Level FlightAware Approximate
Sun 03:58:00 AM 49.1076 -29.2097 78° East  Level FlightAware Approximate
Sun 03:59:00 AM 49.1367 -28.9890 79° East  Level FlightAware Approximate
Sun 04:00:00 AM 49.1652 -28.7680 79° East  Level FlightAware Approximate
Sun 04:01:00 AM 49.1934 -28.5469 79° East  Level FlightAware Approximate
Sun 04:02:00 AM 49.2211 -28.3254 79° East  Level FlightAware Approximate
Sun 04:03:00 AM 49.2485 -28.1037 79° East  Level FlightAware Approximate
Sun 04:04:00 AM 49.2753 -27.8818 79° East  Level FlightAware Approximate
Sun 04:05:00 AM 49.3018 -27.6596 80° East  Level FlightAware Approximate
Sun 04:06:00 AM 49.3287 -27.4374 79° East  Level FlightAware Approximate
Sun 04:07:00 AM 49.3561 -27.2153 79° East  Level FlightAware Approximate
Sun 04:08:00 AM 49.3831 -26.9929 79° East  Level FlightAware Approximate
Sun 04:09:00 AM 49.4097 -26.7703 80° East  Level FlightAware Approximate
Sun 04:10:00 AM 49.4359 -26.5474 80° East  Level FlightAware Approximate
Sun 04:11:00 AM 49.4617 -26.3244 80° East  Level FlightAware Approximate
Sun 04:12:00 AM 49.4870 -26.1010 80° East  Level FlightAware Approximate
Sun 04:13:00 AM 49.5118 -25.8775 80° East  Level FlightAware Approximate
Sun 04:14:00 AM 49.5363 -25.6537 80° East  Level FlightAware Approximate
Sun 04:15:00 AM 49.5603 -25.4297 81° East  Level FlightAware Approximate
Sun 04:16:00 AM 49.5839 -25.2055 81° East  Level FlightAware Approximate
Sun 04:17:00 AM 49.6070 -24.9810 81° East  Level FlightAware Approximate
Sun 04:18:00 AM 49.6295 -24.7563 81° East  Level FlightAware Approximate
Sun 04:19:00 AM 49.6516 -24.5314 81° East  Level FlightAware Approximate
Sun 04:20:00 AM 49.6732 -24.3063 81° East  Level FlightAware Approximate
Sun 04:21:00 AM 49.6944 -24.0809 82° East  Level FlightAware Approximate
Sun 04:22:00 AM 49.7151 -23.8554 82° East  Level FlightAware Approximate
Sun 04:23:00 AM 49.7354 -23.6297 82° East  Level FlightAware Approximate
Sun 04:24:00 AM 49.7553 -23.4039 82° East  Level FlightAware Approximate
Sun 04:25:00 AM 49.7747 -23.1778 82° East  Level FlightAware Approximate
Sun 04:26:00 AM 49.7937 -22.9515 83° East  Level FlightAware Approximate
Sun 04:27:00 AM 49.8122 -22.7251 83° East  Level FlightAware Approximate
Sun 04:28:00 AM 49.8304 -22.4985 83° East  Level FlightAware Approximate
Sun 04:29:00 AM 49.8480 -22.2718 83° East  Level FlightAware Approximate
Sun 04:30:00 AM 49.8652 -22.0448 83° East  Level FlightAware Approximate
Sun 04:31:00 AM 49.8820 -21.8174 83° East  Level FlightAware Approximate
Sun 04:32:00 AM 49.8984 -21.5897 84° East  Level FlightAware Approximate
Sun 04:33:00 AM 49.9143 -21.3619 84° East  Level FlightAware Approximate
Sun 04:34:00 AM 49.9298 -21.1340 84° East  Level FlightAware Approximate
Sun 04:35:00 AM 49.9448 -20.9059 84° East  Level FlightAware Approximate
Sun 04:36:00 AM 49.9594 -20.6776 84° East  Level FlightAware Approximate
Sun 04:37:00 AM 49.9735 -20.4493 84° East  Level FlightAware Approximate
Sun 04:38:00 AM 49.9872 -20.2208 85° East  Level FlightAware Approximate
Sun 04:39:00 AM 49.9997 -19.9921 93° East  Level FlightAware Approximate
Sun 04:40:00 AM 49.9923 -19.7629 93° East  Level FlightAware Approximate
Sun 04:41:00 AM 49.9843 -19.5337 93° East  Level FlightAware Approximate
Sun 04:42:00 AM 49.9759 -19.3046 93° East  Level FlightAware Approximate
Sun 04:43:00 AM 49.9671 -19.0755 93° East  Level FlightAware Approximate
Sun 04:44:00 AM 49.9578 -18.8466 94° East  Level FlightAware Approximate
Sun 04:45:00 AM 49.9481 -18.6177 94° East  Level FlightAware Approximate
Sun 04:46:00 AM 49.9379 -18.3890 94° East  Level FlightAware Approximate
Sun 04:47:00 AM 49.9272 -18.1603 94° East  Level FlightAware Approximate
Sun 04:48:00 AM 49.9161 -17.9317 94° East  Level FlightAware Approximate
Sun 04:49:00 AM 49.9046 -17.7033 94° East  Level FlightAware Approximate
Sun 04:50:00 AM 49.8926 -17.4754 95° East  Level FlightAware Approximate
Sun 04:51:00 AM 49.8802 -17.2475 95° East  Level FlightAware Approximate
Sun 04:52:00 AM 49.8673 -17.0198 95° East  Level FlightAware Approximate
Sun 04:53:00 AM 49.8540 -16.7923 95° East  Level FlightAware Approximate
Sun 04:54:00 AM 49.8403 -16.5648 95° East  Level FlightAware Approximate
Sun 04:55:00 AM 49.8261 -16.3375 95° East  Level FlightAware Approximate
Sun 04:56:00 AM 49.8114 -16.1103 96° East  Level FlightAware Approximate
Sun 04:57:00 AM 49.7963 -15.8833 96° East  Level FlightAware Approximate
Sun 04:58:00 AM 49.7808 -15.6564 96° East  Level FlightAware Approximate
Sun 04:59:00 AM 49.7649 -15.4296 96° East  Level FlightAware Approximate
Sun 05:00:00 AM 49.7484 -15.2030 96° East  Level FlightAware Approximate
Sun 05:01:00 AM 49.7315 -14.9766 97° East  Level FlightAware Approximate
Sun 05:02:00 AM 49.7137 -14.7504 97° East  Level FlightAware Approximate
Sun 05:03:00 AM 49.6955 -14.5244 97° East  Level FlightAware Approximate
Sun 05:04:00 AM 49.6768 -14.2985 97° East  Level FlightAware Approximate
Sun 05:05:00 AM 49.6577 -14.0729 97° East  Level FlightAware Approximate
Sun 05:06:00 AM 49.6382 -13.8474 98° East  Level FlightAware Approximate
Sun 05:06:37 AM 49.4530 -10.5040 98° East 584 672 35,000  Level FlightAware ADS-B
Sun 05:07:00 AM 49.6182 -13.6220 98° East  Level FlightAware Approximate
Sun 05:07:06 AM 49.4400 -10.4060 101° East 584 672 35,000  Level FlightAware ADS-B
Sun 05:07:54 AM 49.4170 -10.2410 102° East 584 672 35,000  Level FlightAware ADS-B
Sun 05:08:30 AM 49.3990 -10.1160 102° East 584 672 35,000  Level FlightAware ADS-B
Sun 05:09:01 AM 49.3660 -9.9240 105° East 582 670 35,000  Level FlightAware ADS-B
Sun 05:09:47 AM 49.3410 -9.7550 103° East 582 670 35,000  Level FlightAware ADS-B
Sun 05:10:24 AM 49.3220 -9.6280 103° East 582 670 35,000  Level FlightAware ADS-B
Sun 05:10:53 AM 49.2970 -9.4750 104° East 581 669 35,000  Level FlightAware ADS-B
Sun 05:11:36 AM 49.2700 -9.3070 104° East 581 669 35,000  Level FlightAware ADS-B
Sun 05:12:16 AM 49.2500 -9.1710 103° East 581 669 35,000  Level FlightAware ADS-B
Sun 05:12:47 AM 49.2240 -9.0200 105° East 581 669 35,000  Level FlightAware ADS-B
Sun 05:13:21 AM 49.2030 -8.8850 103° East 581 669 35,000  Level FlightAware ADS-B
Sun 05:13:57 AM 49.1770 -8.7420 105° East 580 667 35,000  Level FlightAware ADS-B
Sun 05:14:32 AM 49.1444 -8.6000 105° East 494 568 35,000  Level FlightAware UK
Sun 05:14:33 AM 49.1450 -8.6040 105° East 576 663 35,000  Level FlightAware ADS-B
Sun 05:15:10 AM 49.1090 -8.4650 112° Southeast 575 662 35,000  Level FlightAware ADS-B
Sun 05:15:41 AM 49.0760 -8.3490 113° Southeast 573 659 35,000  Level FlightAware ADS-B
Sun 05:16:17 AM 49.0380 -8.2130 113° Southeast 573 659 35,000  Level FlightAware ADS-B
Sun 05:16:53 AM 48.9980 -8.0800 115° Southeast 572 658 35,000  Level FlightAware ADS-B
Sun 05:17:27 AM 48.9630 -7.9590 114° Southeast 571 657 35,000  Level FlightAware ADS-B
Sun 05:18:02 AM 48.9227 -7.8254 114° Southeast 494 568 35,000  Level FlightAware UK
Sun 05:18:03 AM 48.9220 -7.8240 114° Southeast 571 657 35,000  Level FlightAware ADS-B
Sun 05:18:35 AM 48.8880 -7.7110 115° Southeast 571 657 35,000  Level FlightAware ADS-B
Sun 05:19:13 AM 48.8460 -7.5730 115° Southeast 570 656 35,000  Level FlightAware ADS-B
Sun 05:19:49 AM 48.8070 -7.4420 114° Southeast 570 656 35,000  Level FlightAware ADS-B
Sun 05:20:21 AM 48.7730 -7.3300 115° Southeast 570 656 35,000  Level FlightAware ADS-B
Sun 05:20:57 AM 48.7310 -7.1920 115° Southeast 569 655 35,000  Level FlightAware ADS-B
Sun 05:21:32 AM 48.6901 -7.0621 115° Southeast 492 566 35,000  Level FlightAware UK
Sun 05:21:33 AM 48.6920 -7.0660 115° Southeast 570 656 35,000  Level FlightAware ADS-B
Sun 05:22:09 AM 48.6500 -6.9330 116° Southeast 570 656 35,000  Level FlightAware ADS-B
Sun 05:22:43 AM 48.6130 -6.8140 115° Southeast 571 657 35,000  Level FlightAware ADS-B
Sun 05:23:19 AM 48.5730 -6.6830 115° Southeast 572 658 35,000  Level FlightAware ADS-B
Sun 05:23:45 AM 48.5430 -6.5900 116° Southeast 573 659 35,000  Level FlightAware ADS-B
Sun 05:24:27 AM 48.4960 -6.4420 116° Southeast 574 661 35,000  Level FlightAware ADS-B
Sun 05:25:03 AM 48.4531 -6.3043 116° Southeast 496 571 35,000  Level FlightAware UK
Sun 05:25:05 AM 48.4530 -6.3050 116° Southeast 573 659 35,000  Level FlightAware ADS-B
Sun 05:25:37 AM 48.4140 -6.1820 115° Southeast 574 661 35,000  Level FlightAware ADS-B
Sun 05:26:09 AM 48.3773 -6.0669 115° Southeast 494 568 35,000  Level FlightAware UK
Sun 05:26:12 AM 48.3760 -6.0640 115° Southeast 573 659 35,000  Level FlightAware ADS-B
Sun 05:26:48 AM 48.3320 -5.9280 116° Southeast 574 661 35,000  Level FlightAware ADS-B
Sun 05:27:24 AM 48.2930 -5.8060 116° Southeast 573 659 35,000  Level FlightAware ADS-B
Sun 05:27:56 AM 48.2540 -5.6880 116° Southeast 574 661 35,000  Level FlightAware ADS-B
Sun 05:28:34 AM 48.2100 -5.5520 116° Southeast 574 661 35,000  Level FlightAware ADS-B
Sun 05:29:10 AM 48.1670 -5.4200 116° Southeast 573 659 35,000  Level FlightAware ADS-B
Sun 05:29:42 AM 48.1300 -5.3070 116° Southeast 574 661 35,000  Level FlightAware ADS-B
Sun 05:30:18 AM 48.0880 -5.1790 116° Southeast 573 659 35,000  Level FlightAware ADS-B
Sun 05:30:54 AM 48.0460 -5.0550 117° Southeast 573 659 35,000  Level FlightAware ADS-B
Sun 05:31:28 AM 48.0040 -4.9310 117° Southeast 573 659 35,000  Level FlightAware ADS-B
Sun 05:32:02 AM 47.9650 -4.8150 117° Southeast 573 659 35,000  Level FlightAware ADS-B
Sun 05:32:38 AM 47.9210 -4.6840 117° Southeast 574 661 35,000  Level FlightAware ADS-B
Sun 05:33:14 AM 47.8780 -4.5570 117° Southeast 574 661 35,000  Level FlightAware ADS-B
Sun 05:33:46 AM 47.8390 -4.4440 117° Southeast 575 662 35,000  Level FlightAware ADS-B
Sun 05:34:22 AM 47.7960 -4.3170 117° Southeast 576 663 35,000  Level FlightAware ADS-B
Sun 05:35:00 AM 47.7510 -4.1870 117° Southeast 575 662 35,000  Level FlightAware ADS-B
Sun 05:35:32 AM 47.7120 -4.0710 117° Southeast 575 662 35,000  Level FlightAware ADS-B
Sun 05:36:00 AM 47.6790 -3.9760 117° Southeast 574 661 35,000  Level FlightAware ADS-B
Sun 05:36:36 AM 47.6350 -3.8510 118° Southeast 573 659 35,000  Level FlightAware ADS-B
Sun 05:37:12 AM 47.5900 -3.7220 117° Southeast 572 658 35,000  Level FlightAware ADS-B
Sun 05:37:44 AM 47.5520 -3.6110 117° Southeast 572 658 35,000  Level FlightAware ADS-B
Sun 05:38:20 AM 47.5080 -3.4890 118° Southeast 571 657 35,000  Level FlightAware ADS-B
Sun 05:38:58 AM 47.4620 -3.3580 117° Southeast 569 655 35,000  Level FlightAware ADS-B
Sun 05:39:30 AM 47.4230 -3.2450 117° Southeast 568 654 35,000  Level FlightAware ADS-B
Sun 05:40:06 AM 47.3780 -3.1220 118° Southeast 566 651 35,000  Level FlightAware ADS-B
Sun 05:40:42 AM 47.3350 -2.9990 117° Southeast 563 648 35,000  Level FlightAware ADS-B
Sun 05:41:14 AM 47.2960 -2.8950 119° Southeast 560 644 35,000  Level FlightAware ADS-B
Sun 05:41:52 AM 47.2490 -2.7640 118° Southeast 557 641 35,000  Level FlightAware ADS-B
Sun 05:42:24 AM 47.2110 -2.6570 118° Southeast 555 639 35,000  Level FlightAware ADS-B
Sun 05:43:01 AM 47.1680 -2.5410 119° Southeast 553 636 35,000  Level FlightAware ADS-B
Sun 05:43:38 AM 47.1210 -2.4130 118° Southeast 551 634 35,000  Level FlightAware ADS-B
Sun 05:44:10 AM 47.0840 -2.3110 118° Southeast 549 632 35,000  Level FlightAware ADS-B
Sun 05:44:46 AM 47.0390 -2.1900 119° Southeast 550 633 35,000  Level FlightAware ADS-B
Sun 05:45:16 AM 47.0040 -2.0980 119° Southeast 550 633 35,000  Level FlightAware ADS-B
Sun 05:45:53 AM 46.9580 -1.9700 118° Southeast 552 635 35,000  Level FlightAware ADS-B
Sun 05:46:25 AM 46.9180 -1.8650 119° Southeast 553 636 35,000  Level FlightAware ADS-B
Sun 05:46:59 AM 46.8760 -1.7540 119° Southeast 553 636 35,000  Level FlightAware ADS-B
Sun 05:47:35 AM 46.8320 -1.6360 119° Southeast 553 636 35,000  Level FlightAware ADS-B
Sun 05:48:07 AM 46.7930 -1.5350 119° Southeast 552 635 35,000  Level FlightAware ADS-B
Sun 05:48:43 AM 46.7490 -1.4180 119° Southeast 551 634 35,000  Level FlightAware ADS-B
Sun 05:49:21 AM 46.7010 -1.2950 120° Southeast 551 634 35,000  Level FlightAware ADS-B
Sun 05:49:57 AM 46.6570 -1.1790 119° Southeast 551 634 35,000  Level FlightAware ADS-B
Sun 05:50:29 AM 46.6160 -1.0720 119° Southeast 551 634 35,000  Level FlightAware ADS-B
Sun 05:51:03 AM 46.5750 -0.9650 119° Southeast 550 633 35,000  Level FlightAware ADS-B
Sun 05:51:39 AM 46.5310 -0.8530 120° Southeast 550 633 35,000  Level FlightAware ADS-B
Sun 05:52:13 AM 46.4900 -0.7470 119° Southeast 550 633 35,000  Level FlightAware ADS-B
Sun 05:52:48 AM 46.4510 -0.6360 117° Southeast 549 632 35,000  Level FlightAware ADS-B
Sun 05:53:23 AM 46.4210 -0.5140 110° East 550 633 35,000  Level FlightAware ADS-B
Sun 05:53:58 AM 46.3900 -0.3820 109° East 549 632 35,000  Level FlightAware ADS-B
Sun 05:54:39 AM 46.3550 -0.2450 110° East 548 631 35,000  Level FlightAware ADS-B
Sun 05:55:18 AM 46.3190 -0.1110 111° Southeast 548 631 35,000  Level FlightAware ADS-B
Sun 05:55:53 AM 46.2860 0.0120 111° Southeast 549 632 35,000  Level FlightAware ADS-B
Sun 05:56:24 AM 46.2630 0.0970 111° Southeast 548 631 35,000  Level FlightAware ADS-B
Sun 05:56:59 AM 46.2310 0.2200 111° Southeast 546 628 35,000  Level FlightAware ADS-B
Sun 05:57:34 AM 46.2010 0.3360 110° East 544 626 35,000  Level FlightAware ADS-B
Sun 05:58:20 AM 46.1590 0.4980 110° East 540 621 35,000  Level FlightAware ADS-B
Sun 05:59:02 AM 46.1200 0.6500 110° East 541 623 35,000  Level FlightAware ADS-B
Sun 05:59:32 AM 46.0950 0.7440 111° Southeast 540 621 35,000  Level FlightAware ADS-B
Sun 06:00:07 AM 46.0620 0.8720 110° East 539 620 35,000  Level FlightAware ADS-B
Sun 06:00:47 AM 46.0280 0.9980 111° Southeast 537 618 35,000  Level FlightAware ADS-B
Sun 06:01:22 AM 45.9980 1.1110 111° Southeast 535 616 35,000  Level FlightAware ADS-B
Sun 06:01:52 AM 45.9710 1.2140 111° Southeast 535 616 35,000  Level FlightAware ADS-B
Sun 06:02:27 AM 45.9400 1.3300 111° Southeast 535 616 35,000  Level FlightAware ADS-B
Sun 06:03:07 AM 45.9040 1.4660 111° Southeast 534 615 35,000  Level FlightAware ADS-B
Sun 06:03:37 AM 45.8770 1.5610 112° Southeast 534 615 35,000  Level FlightAware ADS-B
Sun 06:04:12 AM 45.8470 1.6730 111° Southeast 533 613 35,000  Level FlightAware ADS-B
Sun 06:04:48 AM 45.8130 1.7940 112° Southeast 531 611 35,000  Level FlightAware ADS-B
Sun 06:05:27 AM 45.7780 1.9210 112° Southeast 531 611 35,000  Level FlightAware ADS-B
Sun 06:06:02 AM 45.7460 2.0320 112° Southeast 531 611 35,000  Level FlightAware ADS-B
Sun 06:06:32 AM 45.7180 2.1290 112° Southeast 531 611 35,000  Level FlightAware ADS-B
Sun 06:07:07 AM 45.6850 2.2500 111° Southeast 531 611 35,000  Level FlightAware ADS-B
Sun 06:07:47 AM 45.6490 2.3760 112° Southeast 529 609 35,000  Level FlightAware ADS-B
Sun 06:08:23 AM 45.6140 2.4950 113° Southeast 529 609 35,000  Level FlightAware ADS-B
Sun 06:08:59 AM 45.5790 2.6170 112° Southeast 528 608 35,000  Level FlightAware ADS-B
Sun 06:09:31 AM 45.5510 2.7140 112° Southeast 529 609 35,000  Level FlightAware ADS-B
Sun 06:10:06 AM 45.5170 2.8290 113° Southeast 528 608 35,000  Level FlightAware ADS-B
Sun 06:10:40 AM 45.4830 2.9420 113° Southeast 529 609 35,000  Level FlightAware ADS-B
Sun 06:11:15 AM 45.4540 3.0410 113° Southeast 529 609 35,000  Level FlightAware ADS-B
Sun 06:11:52 AM 45.4150 3.1690 113° Southeast 528 608 35,000  Level FlightAware ADS-B
Sun 06:12:22 AM 45.3860 3.2650 113° Southeast 527 606 35,000  Level FlightAware ADS-B
Sun 06:13:00 AM 45.3490 3.3890 113° Southeast 526 605 35,000  Level FlightAware ADS-B
Sun 06:13:36 AM 45.3140 3.4990 114° Southeast 525 604 35,000  Level FlightAware ADS-B
Sun 06:14:12 AM 45.2790 3.6160 113° Southeast 523 602 35,000  Level FlightAware ADS-B
Sun 06:14:48 AM 45.2430 3.7210 116° Southeast 523 602 35,000  Level FlightAware ADS-B
Sun 06:15:22 AM 45.2020 3.8220 120° Southeast 523 602 35,000  Level FlightAware ADS-B
Sun 06:15:58 AM 45.1590 3.9290 120° Southeast 523 602 35,000  Level FlightAware ADS-B
Sun 06:16:30 AM 45.1180 4.0290 120° Southeast 522 601 35,000  Level FlightAware ADS-B
Sun 06:17:08 AM 45.0730 4.1420 119° Southeast 523 602 35,000  Level FlightAware ADS-B
Sun 06:17:40 AM 45.0360 4.2350 119° Southeast 523 602 35,000  Level FlightAware ADS-B
Sun 06:18:16 AM 44.9940 4.3390 120° Southeast 521 600 35,000  Level FlightAware ADS-B
Sun 06:18:52 AM 44.9490 4.4520 119° Southeast 522 601 35,000  Level FlightAware ADS-B
Sun 06:19:26 AM 44.9120 4.5460 119° Southeast 520 598 35,000  Level FlightAware ADS-B
Sun 06:20:02 AM 44.8690 4.6520 120° Southeast 519 597 35,000  Level FlightAware ADS-B
Sun 06:20:38 AM 44.8240 4.7630 120° Southeast 516 594 35,000  Level FlightAware ADS-B
Sun 06:21:09 AM 44.7890 4.8500 120° Southeast 514 592 35,000  Level FlightAware ADS-B
Sun 06:21:47 AM 44.7400 4.9610 122° Southeast 511 588 35,000  Level FlightAware ADS-B
Sun 06:22:19 AM 44.6990 5.0510 123° Southeast 511 588 35,000  Level FlightAware ADS-B
Sun 06:22:57 AM 44.6530 5.1540 122° Southeast 509 586 35,000  Level FlightAware ADS-B
Sun 06:23:31 AM 44.6090 5.2520 122° Southeast 509 586 35,000  Level FlightAware ADS-B
Sun 06:24:07 AM 44.5650 5.3490 122° Southeast 509 586 35,000  Level FlightAware ADS-B
Sun 06:24:44 AM 44.5190 5.4500 123° Southeast 509 586 35,000  Level FlightAware ADS-B
Sun 06:25:14 AM 44.4810 5.5370 121° Southeast 509 586 35,000  Level FlightAware ADS-B
Sun 06:25:52 AM 44.4340 5.6400 123° Southeast 511 588 35,000  Level FlightAware ADS-B
Sun 06:26:28 AM 44.3880 5.7400 123° Southeast 512 589 35,000  Level FlightAware ADS-B
Sun 06:27:04 AM 44.3410 5.8430 123° Southeast 512 589 35,000  Level FlightAware ADS-B
Sun 06:27:36 AM 44.3010 5.9320 122° Southeast 511 588 35,000  Level FlightAware ADS-B
Sun 06:28:12 AM 44.2540 6.0350 122° Southeast 509 586 35,000  Level FlightAware ADS-B
Sun 06:28:48 AM 44.2110 6.1280 123° Southeast 508 585 35,000  Level FlightAware ADS-B
Sun 06:29:20 AM 44.1680 6.2210 123° Southeast 507 583 35,000  Level FlightAware ADS-B
Sun 06:29:54 AM 44.1260 6.3090 124° Southeast 507 583 35,000  Level FlightAware ADS-B
Sun 06:30:31 AM 44.0780 6.4130 123° Southeast 507 583 35,000  Level FlightAware ADS-B
Sun 06:31:07 AM 44.0320 6.5140 122° Southeast 506 582 35,000  Level FlightAware ADS-B
Sun 06:31:41 AM 43.9930 6.5960 123° Southeast 505 581 35,000  Level FlightAware ADS-B
Sun 06:32:15 AM 43.9450 6.6960 124° Southeast 505 581 35,000  Level FlightAware ADS-B
Sun 06:32:53 AM 43.8970 6.7990 123° Southeast 504 580 35,000  Level FlightAware ADS-B
Sun 06:33:27 AM 43.8540 6.8900 123° Southeast 504 580 35,000  Level FlightAware ADS-B
Sun 06:34:01 AM 43.8110 6.9820 123° Southeast 504 580 35,000  Level FlightAware ADS-B
Sun 06:34:37 AM 43.7650 7.0790 123° Southeast 503 579 35,000  Level FlightAware ADS-B
Sun 06:35:11 AM 43.7200 7.1730 123° Southeast 503 579 35,000  Level FlightAware ADS-B
Sun 06:35:45 AM 43.6760 7.2640 124° Southeast 503 579 35,000  Level FlightAware ADS-B
Sun 06:36:19 AM 43.6330 7.3530 124° Southeast 502 578 35,000  Level FlightAware ADS-B
Sun 06:36:57 AM 43.5830 7.4560 124° Southeast 502 578 35,000  Level FlightAware ADS-B
Sun 06:37:31 AM 43.5400 7.5460 123° Southeast 500 575 35,000  Level FlightAware ADS-B
Sun 06:38:06 AM 43.4950 7.6370 124° Southeast 500 575 35,000  Level FlightAware ADS-B
Sun 06:38:43 AM 43.4470 7.7370 123° Southeast 499 574 35,000  Level FlightAware ADS-B
Sun 06:39:17 AM 43.4030 7.8260 124° Southeast 498 573 35,000  Level FlightAware ADS-B
Sun 06:39:52 AM 43.3580 7.9180 124° Southeast 498 573 35,000  Level FlightAware ADS-B
Sun 06:40:23 AM 43.3180 7.9990 124° Southeast 500 575 35,000  Level FlightAware ADS-B
Sun 06:40:59 AM 43.2720 8.0940 124° Southeast 500 575 35,000  Level FlightAware ADS-B
Sun 06:41:36 AM 43.2240 8.1910 124° Southeast 499 574 35,000  Level FlightAware ADS-B
Sun 06:42:13 AM 43.1760 8.2880 124° Southeast 498 573 35,000  Level FlightAware ADS-B
Sun 06:42:44 AM 43.1370 8.3660 124° Southeast 499 574 35,000  Level FlightAware ADS-B
Sun 06:43:18 AM 43.0920 8.4550 125° Southeast 499 574 35,000  Level FlightAware ADS-B
Sun 06:43:57 AM 43.0410 8.5590 124° Southeast 499 574 35,000  Level FlightAware ADS-B
Sun 06:44:31 AM 42.9960 8.6470 125° Southeast 499 574 35,000  Level FlightAware ADS-B
Sun 06:45:06 AM 42.9510 8.7350 125° Southeast 499 574 35,000  Level FlightAware ADS-B
Sun 06:45:42 AM 42.9060 8.8260 124° Southeast 498 573 35,000  Level FlightAware ADS-B
Sun 06:46:18 AM 42.8560 8.9240 125° Southeast 498 573 35,000  Level FlightAware ADS-B
Sun 06:46:53 AM 42.8110 9.0120 125° Southeast 498 573 35,000  Level FlightAware ADS-B
Sun 06:47:26 AM 42.7670 9.0990 125° Southeast 498 573 35,000  Level FlightAware ADS-B
Sun 06:48:01 AM 42.7220 9.1870 125° Southeast 499 574 35,000  Level FlightAware ADS-B
Sun 06:48:38 AM 42.6720 9.2840 125° Southeast 499 574 35,000  Level FlightAware ADS-B
Sun 06:49:11 AM 42.6300 9.3670 125° Southeast 499 574 35,000  Level FlightAware ADS-B
Sun 06:49:47 AM 42.5830 9.4560 126° Southeast 499 574 35,000  Level FlightAware ADS-B
Sun 06:50:23 AM 42.5330 9.5510 126° Southeast 498 573 35,000 176 Level FlightAware ADS-B
Sun 06:50:55 AM 42.4910 9.6320 125° Southeast 500 575 35,200 845 Climbing FlightAware ADS-B
Sun 06:51:34 AM 42.4420 9.7350 123° Southeast 502 578 36,000 943 Climbing FlightAware ADS-B
Sun 06:52:05 AM 42.4020 9.8200 122° Southeast 503 579 36,300 896 Climbing FlightAware ADS-B
Sun 06:52:41 AM 42.3580 9.9170 122° Southeast 502 578 37,000 568 Climbing FlightAware ADS-B
Sun 06:53:19 AM 42.3140 10.0130 122° Southeast 504 580 37,000  Level FlightAware ADS-B
Sun 06:53:49 AM 42.2760 10.0990 121° Southeast 504 580 37,000  Level FlightAware ADS-B
Sun 06:54:26 AM 42.2330 10.1930 122° Southeast 503 579 37,000  Level FlightAware ADS-B
Sun 06:54:58 AM 42.1940 10.2780 122° Southeast 502 578 37,000  Level FlightAware ADS-B
Sun 06:55:39 AM 42.1420 10.3920 122° Southeast 500 575 37,000  Level FlightAware ADS-B
Sun 06:56:09 AM 42.1050 10.4710 122° Southeast 500 575 37,000  Level FlightAware ADS-B
Sun 06:56:47 AM 42.0610 10.5670 122° Southeast 500 575 37,000  Level FlightAware ADS-B
Sun 06:57:23 AM 42.0160 10.6640 122° Southeast 498 573 37,000  Level FlightAware ADS-B
Sun 06:57:55 AM 41.9770 10.7480 122° Southeast 499 574 37,000  Level FlightAware ADS-B
Sun 06:58:31 AM 41.9320 10.8460 122° Southeast 498 573 37,000  Level FlightAware ADS-B
Sun 06:59:07 AM 41.8890 10.9370 122° Southeast 497 572 37,000  Level FlightAware ADS-B
Sun 06:59:39 AM 41.8490 11.0230 122° Southeast 498 573 37,000  Level FlightAware ADS-B
Sun 07:00:16 AM 41.8040 11.1180 122° Southeast 499 574 37,000  Level FlightAware ADS-B
Sun 07:00:51 AM 41.7610 11.2090 122° Southeast 498 573 37,000  Level FlightAware ADS-B
Sun 07:01:27 AM 41.7160 11.3050 122° Southeast 497 572 37,000  Level FlightAware ADS-B
Sun 07:02:03 AM 41.6720 11.3960 123° Southeast 498 573 37,000  Level FlightAware ADS-B
Sun 07:02:35 AM 41.6320 11.4820 122° Southeast 497 572 37,000  Level FlightAware ADS-B
Sun 07:03:11 AM 41.5870 11.5750 123° Southeast 497 572 37,000  Level FlightAware ADS-B
Sun 07:03:45 AM 41.5450 11.6630 123° Southeast 498 573 37,000  Level FlightAware ADS-B
Sun 07:04:21 AM 41.5010 11.7540 123° Southeast 498 573 37,000  Level FlightAware ADS-B
Sun 07:04:57 AM 41.4560 11.8490 122° Southeast 497 572 37,000  Level FlightAware ADS-B
Sun 07:05:33 AM 41.4110 11.9420 123° Southeast 497 572 37,000  Level FlightAware ADS-B
Sun 07:06:05 AM 41.3720 12.0240 122° Southeast 496 571 37,000  Level FlightAware ADS-B
Sun 07:06:43 AM 41.3250 12.1190 123° Southeast 496 571 37,000  Level FlightAware ADS-B
Sun 07:07:15 AM 41.2850 12.2030 122° Southeast 496 571 37,000  Level FlightAware ADS-B
Sun 07:07:53 AM 41.2380 12.2980 123° Southeast 496 571 37,000  Level FlightAware ADS-B
Sun 07:08:29 AM 41.1920 12.3920 123° Southeast 496 571 37,000  Level FlightAware ADS-B
Sun 07:09:01 AM 41.1540 12.4760 121° Southeast 495 570 37,000  Level FlightAware ADS-B
Sun 07:09:37 AM 41.1120 12.5700 121° Southeast 496 571 37,000  Level FlightAware ADS-B
Sun 07:10:09 AM 41.0770 12.6490 120° Southeast 495 570 37,000  Level FlightAware ADS-B
Sun 07:10:49 AM 41.0310 12.7570 119° Southeast 496 571 37,000  Level FlightAware ADS-B
Sun 07:11:15 AM 41.0010 12.8250 120° Southeast 497 572 37,000  Level FlightAware ADS-B
Sun 07:11:54 AM 40.9550 12.9300 120° Southeast 499 574 37,000  Level FlightAware ADS-B
Sun 07:12:34 AM 40.9080 13.0360 120° Southeast 500 575 37,000  Level FlightAware ADS-B
Sun 07:13:06 AM 40.8730 13.1150 120° Southeast 502 578 37,000  Level FlightAware ADS-B
Sun 07:13:41 AM 40.8310 13.2110 120° Southeast 506 582 37,000  Level FlightAware ADS-B
Sun 07:14:19 AM 40.7850 13.3120 121° Southeast 508 585 37,000  Level FlightAware ADS-B
Sun 07:14:51 AM 40.7470 13.3980 120° Southeast 511 588 37,000  Level FlightAware ADS-B
Sun 07:15:27 AM 40.7030 13.4970 120° Southeast 513 590 37,000  Level FlightAware ADS-B
Sun 07:16:03 AM 40.6620 13.5860 121° Southeast 515 593 37,000  Level FlightAware ADS-B
Sun 07:16:35 AM 40.6220 13.6780 120° Southeast 516 594 37,000  Level FlightAware ADS-B
Sun 07:17:10 AM 40.5770 13.7760 121° Southeast 518 596 37,000  Level FlightAware ADS-B
Sun 07:17:47 AM 40.5330 13.8730 121° Southeast 520 598 37,000  Level FlightAware ADS-B
Sun 07:18:20 AM 40.4920 13.9630 121° Southeast 522 601 37,000  Level FlightAware ADS-B
Sun 07:18:56 AM 40.4460 14.0610 122° Southeast 524 603 37,000  Level FlightAware ADS-B
Sun 07:19:32 AM 40.4030 14.1570 120° Southeast 526 605 37,000  Level FlightAware ADS-B
Sun 07:20:08 AM 40.3560 14.2610 121° Southeast 528 608 37,000  Level FlightAware ADS-B
Sun 07:20:43 AM 40.3110 14.3570 122° Southeast 529 609 37,000  Level FlightAware ADS-B
Sun 07:21:18 AM 40.2680 14.4500 121° Southeast 528 608 37,000  Level FlightAware ADS-B
Sun 07:21:50 AM 40.2260 14.5400 121° Southeast 529 609 37,000  Level FlightAware ADS-B
Sun 07:22:28 AM 40.1810 14.6460 119° Southeast 530 610 37,000  Level FlightAware ADS-B
Sun 07:23:02 AM 40.1440 14.7440 116° Southeast 530 610 37,000  Level FlightAware ADS-B
Sun 07:23:38 AM 40.1070 14.8450 116° Southeast 530 610 37,000  Level FlightAware ADS-B
Sun 07:24:10 AM 40.0740 14.9350 116° Southeast 531 611 37,000  Level FlightAware ADS-B
Sun 07:24:47 AM 40.0340 15.0480 115° Southeast 531 611 37,000  Level FlightAware ADS-B
Sun 07:25:23 AM 39.9970 15.1520 115° Southeast 531 611 37,000  Level FlightAware ADS-B
Sun 07:25:55 AM 39.9650 15.2390 116° Southeast 530 610 37,000  Level FlightAware ADS-B
Sun 07:26:33 AM 39.9240 15.3510 115° Southeast 530 610 37,000  Level FlightAware ADS-B
Sun 07:27:05 AM 39.8920 15.4410 115° Southeast 530 610 37,000  Level FlightAware ADS-B
Sun 07:27:41 AM 39.8530 15.5470 116° Southeast 529 609 37,000  Level FlightAware ADS-B
Sun 07:28:17 AM 39.8150 15.6510 115° Southeast 529 609 37,000  Level FlightAware ADS-B
Sun 07:28:53 AM 39.7780 15.7540 115° Southeast 528 608 37,000  Level FlightAware ADS-B
Sun 07:29:35 AM 39.7330 15.8770 115° Southeast 529 609 37,000  Level FlightAware ADS-B
Sun 07:30:07 AM 39.6990 15.9660 116° Southeast 529 609 37,000  Level FlightAware ADS-B
Sun 07:30:43 AM 39.6610 16.0720 115° Southeast 531 611 37,000  Level FlightAware ADS-B
Sun 07:31:21 AM 39.6200 16.1780 117° Southeast 532 612 37,000  Level FlightAware ADS-B
Sun 07:31:53 AM 39.5860 16.2730 115° Southeast 534 615 37,000  Level FlightAware ADS-B
Sun 07:32:29 AM 39.5470 16.3770 116° Southeast 535 616 37,000  Level FlightAware ADS-B
Sun 07:33:05 AM 39.5070 16.4810 116° Southeast 537 618 37,000  Level FlightAware ADS-B
Sun 07:33:37 AM 39.4730 16.5730 116° Southeast 538 619 37,000  Level FlightAware ADS-B
Sun 07:34:15 AM 39.4310 16.6830 116° Southeast 538 619 37,000  Level FlightAware ADS-B
Sun 07:34:51 AM 39.3930 16.7840 116° Southeast 538 619 37,000  Level FlightAware ADS-B
Sun 07:35:24 AM 39.3560 16.8790 117° Southeast 539 620 37,000  Level FlightAware ADS-B
Sun 07:35:59 AM 39.3170 16.9830 116° Southeast 539 620 37,000  Level FlightAware ADS-B
Sun 07:36:36 AM 39.2780 17.0840 116° Southeast 539 620 37,000  Level FlightAware ADS-B
Sun 07:37:09 AM 39.2390 17.1850 116° Southeast 539 620 37,000  Level FlightAware ADS-B
Sun 07:37:42 AM 39.2030 17.2800 116° Southeast 539 620 37,000  Level FlightAware ADS-B
Sun 07:38:18 AM 39.1620 17.3830 117° Southeast 538 619 37,000  Level FlightAware ADS-B
Sun 07:38:55 AM 39.1230 17.4830 117° Southeast 538 619 37,000  Level FlightAware ADS-B
Sun 07:39:30 AM 39.0820 17.5890 116° Southeast 538 619 37,000  Level FlightAware ADS-B
Sun 07:40:02 AM 39.0470 17.6780 117° Southeast 539 620 37,000  Level FlightAware ADS-B
Sun 07:40:40 AM 39.0040 17.7870 117° Southeast 539 620 37,000  Level FlightAware ADS-B
Sun 07:41:16 AM 38.9630 17.8930 116° Southeast 540 621 37,000  Level FlightAware ADS-B
Sun 07:41:48 AM 38.9270 17.9840 117° Southeast 540 621 37,000  Level FlightAware ADS-B
Sun 07:42:24 AM 38.8860 18.0870 117° Southeast 539 620 37,000  Level FlightAware ADS-B
Sun 07:43:00 AM 38.8460 18.1890 117° Southeast 538 619 37,000  Level FlightAware ADS-B
Sun 07:43:33 AM 38.8090 18.2800 118° Southeast 538 619 37,000  Level FlightAware ADS-B
Sun 07:44:10 AM 38.7660 18.3880 117° Southeast 538 619 37,000  Level FlightAware ADS-B
Sun 07:44:46 AM 38.7250 18.4900 117° Southeast 538 619 37,000  Level FlightAware ADS-B
Sun 07:45:18 AM 38.6890 18.5800 117° Southeast 538 619 37,000  Level FlightAware ADS-B
Sun 07:45:54 AM 38.6470 18.6820 118° Southeast 538 619 37,000  Level FlightAware ADS-B
Sun 07:46:30 AM 38.6070 18.7840 117° Southeast 538 619 37,000  Level FlightAware ADS-B
Sun 07:47:08 AM 38.5780 18.8540 118° Southeast 538 619 37,000  Level FlightAware ADS-B
Sun 07:47:59 AM 38.5100 19.0320 116° Southeast 539 620 37,000  Level FlightAware ADS-B
Sun 07:48:34 AM 38.4820 19.1380 109° East 542 624 37,000  Level FlightAware ADS-B
Sun 07:49:09 AM 38.4530 19.2440 109° East 542 624 37,000  Level FlightAware ADS-B
Sun 07:49:54 AM 38.4180 19.3810 108° East 542 624 37,000  Level FlightAware ADS-B
Sun 07:50:24 AM 38.3930 19.4730 109° East 543 625 37,000  Level FlightAware ADS-B
Sun 07:51:00 AM 38.3640 19.5820 109° East 545 627 37,000  Level FlightAware ADS-B
Sun 07:51:35 AM 38.3360 19.6880 109° East 545 627 37,000  Level FlightAware ADS-B
Sun 07:52:10 AM 38.3080 19.7940 109° East 545 627 37,000  Level FlightAware ADS-B
Sun 07:52:45 AM 38.2790 19.9000 109° East 544 626 37,000  Level FlightAware ADS-B
Sun 07:53:19 AM 38.2500 20.0060 109° East 544 626 37,000  Level FlightAware ADS-B
Sun 07:53:55 AM 38.2210 20.1120 109° East 544 626 37,000  Level FlightAware ADS-B
Sun 07:54:29 AM 38.1920 20.2180 109° East 545 627 37,000  Level FlightAware ADS-B
Sun 07:55:05 AM 38.1630 20.3240 109° East 545 627 37,000  Level FlightAware ADS-B
Sun 07:55:34 AM 38.1390 20.4110 109° East 544 626 37,000  Level FlightAware ADS-B
Sun 07:56:15 AM 38.1020 20.5330 111° Southeast 542 624 37,000  Level FlightAware ADS-B
Sun 07:56:54 AM 38.0590 20.6450 116° Southeast 537 618 37,000  Level FlightAware ADS-B
Sun 07:57:25 AM 38.0260 20.7340 115° Southeast 537 618 37,000 369 Level FlightAware ADS-B
Sun 07:57:59 AM 37.9900 20.8310 115° Southeast 537 618 37,400 943 Climbing FlightAware ADS-B
Sun 07:58:35 AM 37.9510 20.9340 116° Southeast 536 617 38,100 1,114 Climbing FlightAware ADS-B
Sun 07:59:09 AM 37.9140 21.0300 116° Southeast 533 613 38,700 771 Climbing FlightAware ADS-B
Sun 07:59:45 AM 37.8750 21.1320 116° Southeast 534 615 39,000 257 Climbing FlightAware ADS-B
Sun 08:00:19 AM 37.8420 21.2160 116° Southeast 534 615 39,000  Level FlightAware ADS-B
Sun 08:00:58 AM 37.7950 21.3410 115° Southeast 536 617 39,000  Level FlightAware ADS-B
Sun 08:01:33 AM 37.7570 21.4390 116° Southeast 537 618 39,000  Level FlightAware ADS-B
Sun 08:02:21 AM 37.7040 21.5740 116° Southeast 535 616 39,000  Level FlightAware ADS-B
Sun 08:02:56 AM 37.6660 21.6720 116° Southeast 535 616 39,000  Level FlightAware ADS-B
Sun 08:03:30 AM 37.6280 21.7700 116° Southeast 535 616 39,000  Level FlightAware ADS-B
Sun 08:04:06 AM 37.5910 21.8650 116° Southeast 534 615 39,000  Level FlightAware ADS-B
Sun 08:04:56 AM 37.5400 21.9970 116° Southeast 535 616 39,000  Level FlightAware ADS-B
Sun 08:05:31 AM 37.4970 22.1030 117° Southeast 535 616 39,000  Level FlightAware ADS-B
Sun 08:06:08 AM 37.4630 22.1910 116° Southeast 535 616 39,000  Level FlightAware ADS-B
Sun 08:06:36 AM 37.4250 22.2870 116° Southeast 535 616 39,000  Level FlightAware ADS-B
Sun 08:07:20 AM 37.3830 22.4100 113° Southeast 538 619 39,000  Level FlightAware ADS-B
Sun 08:07:58 AM 37.3490 22.5240 111° Southeast 538 619 39,000  Level FlightAware ADS-B
Sun 08:08:35 AM 37.3190 22.6320 109° East 537 618 39,000  Level FlightAware ADS-B
Sun 08:09:07 AM 37.2920 22.7260 110° East 537 618 39,000  Level FlightAware ADS-B
Sun 08:09:43 AM 37.2600 22.8310 111° Southeast 536 617 39,000  Level FlightAware ADS-B
Sun 08:10:23 AM 37.2260 22.9480 110° East 536 617 39,000  Level FlightAware ADS-B
Sun 08:11:01 AM 37.1930 23.0620 110° East 535 616 39,000  Level FlightAware ADS-B
Sun 08:11:35 AM 37.1630 23.1600 111° Southeast 534 615 39,000  Level FlightAware ADS-B
Sun 08:12:08 AM 37.1350 23.2530 111° Southeast 533 613 39,000  Level FlightAware ADS-B
Sun 08:12:43 AM 37.1050 23.3540 110° East 532 612 39,000  Level FlightAware ADS-B
Sun 08:13:13 AM 37.0780 23.4440 111° Southeast 533 613 39,000  Level FlightAware ADS-B
Sun 08:13:57 AM 37.0400 23.5670 111° Southeast 533 613 39,000  Level FlightAware ADS-B
Sun 08:14:29 AM 37.0130 23.6600 110° East 533 613 39,000  Level FlightAware ADS-B
Sun 08:15:01 AM 36.9840 23.7520 112° Southeast 533 613 39,000  Level FlightAware ADS-B
Sun 08:15:41 AM 36.9490 23.8670 111° Southeast 533 613 39,000  Level FlightAware ADS-B
Sun 08:16:13 AM 36.9210 23.9590 111° Southeast 533 613 39,000  Level FlightAware ADS-B
Sun 08:16:49 AM 36.8890 24.0620 111° Southeast 533 613 39,000  Level FlightAware ADS-B
Sun 08:17:25 AM 36.8570 24.1680 111° Southeast 533 613 39,000  Level FlightAware ADS-B
Sun 08:18:01 AM 36.8250 24.2690 112° Southeast 533 613 39,000  Level FlightAware ADS-B
Sun 08:18:33 AM 36.7960 24.3640 111° Southeast 533 613 39,000  Level FlightAware ADS-B
Sun 08:19:07 AM 36.7660 24.4610 111° Southeast 534 615 39,000  Level FlightAware ADS-B
Sun 08:19:45 AM 36.7320 24.5670 112° Southeast 532 612 39,000  Level FlightAware ADS-B
Sun 08:20:21 AM 36.6950 24.6670 115° Southeast 532 612 39,000  Level FlightAware ADS-B
Sun 08:20:53 AM 36.6610 24.7590 115° Southeast 533 613 39,000  Level FlightAware ADS-B
Sun 08:21:31 AM 36.6220 24.8610 115° Southeast 532 612 39,000  Level FlightAware ADS-B
Sun 08:22:05 AM 36.5870 24.9590 114° Southeast 531 611 39,000  Level FlightAware ADS-B
Sun 08:22:39 AM 36.5520 25.0540 115° Southeast 532 612 39,000  Level FlightAware ADS-B
Sun 08:23:15 AM 36.5180 25.1480 114° Southeast 532 612 39,000  Level FlightAware ADS-B
Sun 08:23:47 AM 36.4840 25.2400 115° Southeast 532 612 39,000  Level FlightAware ADS-B
Sun 08:24:23 AM 36.4460 25.3430 115° Southeast 532 612 39,000  Level FlightAware ADS-B
Sun 08:24:59 AM 36.4100 25.4400 115° Southeast 532 612 39,000  Level FlightAware ADS-B
Sun 08:25:35 AM 36.3720 25.5430 115° Southeast 530 610 39,000  Level FlightAware ADS-B
Sun 08:26:11 AM 36.3360 25.6390 115° Southeast 528 608 39,000  Level FlightAware ADS-B
Sun 08:26:43 AM 36.3030 25.7270 115° Southeast 528 608 39,000  Level FlightAware ADS-B
Sun 08:27:21 AM 36.2630 25.8310 115° Southeast 527 606 39,000  Level FlightAware ADS-B
Sun 08:27:53 AM 36.2300 25.9210 114° Southeast 527 606 39,000  Level FlightAware ADS-B
Sun 08:28:29 AM 36.1930 26.0170 116° Southeast 527 606 39,000  Level FlightAware ADS-B
Sun 08:29:05 AM 36.1550 26.1180 115° Southeast 527 606 39,000  Level FlightAware ADS-B
Sun 08:29:41 AM 36.1180 26.2160 115° Southeast 528 608 39,000  Level FlightAware ADS-B
Sun 08:30:13 AM 36.0850 26.3010 116° Southeast 528 608 39,000  Level FlightAware ADS-B
Sun 08:30:47 AM 36.0500 26.3940 115° Southeast 528 608 39,000  Level FlightAware ADS-B
Sun 08:31:23 AM 36.0110 26.4940 116° Southeast 528 608 39,000  Level FlightAware ADS-B
Sun 08:31:59 AM 35.9740 26.5920 115° Southeast 529 609 39,000  Level FlightAware ADS-B
Sun 08:32:35 AM 35.9360 26.6900 116° Southeast 529 609 39,000  Level FlightAware ADS-B
Sun 08:33:09 AM 35.8990 26.7830 116° Southeast 530 610 39,000  Level FlightAware ADS-B
Sun 08:33:50 AM 35.8610 26.8840 115° Southeast 529 609 39,000  Level FlightAware ADS-B
Sun 08:34:26 AM 35.8290 26.9680 115° Southeast 529 609 39,000  Level FlightAware ADS-B
Sun 08:35:02 AM 35.7980 27.0510 115° Southeast 529 609 39,000  Level FlightAware ADS-B
Sun 08:35:39 AM 35.7650 27.1370 115° Southeast 529 609 39,000  Level FlightAware ADS-B
Sun 08:36:15 AM 35.7330 27.2210 115° Southeast 529 609 39,000  Level FlightAware ADS-B
Sun 08:36:51 AM 35.7020 27.3040 115° Southeast 529 609 39,000  Level FlightAware ADS-B
Sun 08:37:28 AM 35.6690 27.3900 115° Southeast 529 609 39,000  Level FlightAware ADS-B
Sun 08:38:04 AM 35.6370 27.4740 115° Southeast 529 609 39,000  Level FlightAware ADS-B
Sun 08:38:41 AM 35.6050 27.5600 115° Southeast 529 609 39,000  Level FlightAware ADS-B
Sun 08:39:17 AM 35.5730 27.6430 115° Southeast 529 609 39,000  Level FlightAware ADS-B
Sun 08:39:53 AM 35.5420 27.7270 114° Southeast 529 609 39,000  Level FlightAware ADS-B
Sun 08:40:30 AM 35.5090 27.8120 115° Southeast 529 609 39,000  Level FlightAware ADS-B
Sun 08:41:06 AM 35.4770 27.8960 115° Southeast 529 609 39,000  Level FlightAware ADS-B
Sun 08:41:38 AM 35.3590 28.1400 121° Southeast 516 594 39,000  Level FlightAware ADS-B
Sun 08:42:25 AM 35.3080 28.2660 116° Southeast 518 596 39,000  Level FlightAware ADS-B
Sun 08:42:57 AM 35.2740 28.3500 116° Southeast 518 596 39,000  Level FlightAware ADS-B
Sun 08:43:33 AM 35.2350 28.4440 117° Southeast 518 596 39,000  Level FlightAware ADS-B
Sun 08:44:09 AM 35.1960 28.5410 116° Southeast 519 597 39,000  Level FlightAware ADS-B
Sun 08:44:35 AM 35.1680 28.6100 116° Southeast 520 598 39,000  Level FlightAware ADS-B
Sun 08:45:19 AM 35.1230 28.7200 117° Southeast 517 595 39,000  Level FlightAware ADS-B
Sun 08:45:50 AM 35.0890 28.7990 118° Southeast 517 595 39,000  Level FlightAware ADS-B
Sun 08:46:27 AM 35.0470 28.9010 117° Southeast 522 601 39,000  Level FlightAware ADS-B
Sun 08:47:02 AM 35.0110 28.9880 117° Southeast 518 596 39,000  Level FlightAware ADS-B
Sun 08:47:44 AM 34.9720 29.0850 116° Southeast 518 596 39,000  Level FlightAware ADS-B
Sun 08:48:20 AM 34.9400 29.1650 116° Southeast 518 596 39,000  Level FlightAware ADS-B
Sun 08:49:07 AM 34.8760 29.3100 118° Southeast 517 595 39,000  Level FlightAware ADS-B
Sun 08:49:48 AM 34.8290 29.4210 117° Southeast 515 593 39,000  Level FlightAware ADS-B
Sun 08:50:24 AM 34.7890 29.5180 117° Southeast 515 593 39,000  Level FlightAware ADS-B
Sun 08:50:59 AM 34.7490 29.6110 118° Southeast 515 593 39,000  Level FlightAware ADS-B
Sun 08:51:33 AM 34.7110 29.7020 117° Southeast 515 593 39,000  Level FlightAware ADS-B
Sun 08:52:09 AM 34.6720 29.7900 118° Southeast 520 598 39,000  Level FlightAware ADS-B
Sun 08:52:44 AM 34.6360 29.8760 117° Southeast 520 598 39,000  Level FlightAware ADS-B
Sun 08:53:24 AM 34.5990 29.9640 117° Southeast 520 598 39,000  Level FlightAware ADS-B
Sun 08:53:59 AM 34.5510 30.0690 119° Southeast 519 597 39,000  Level FlightAware ADS-B
Sun 08:54:34 AM 34.5060 30.1610 121° Southeast 513 590 39,000  Level FlightAware ADS-B
Sun 08:55:11 AM 34.4680 30.2390 121° Southeast 518 596 39,000  Level FlightAware ADS-B
Sun 08:55:49 AM 34.4140 30.3510 120° Southeast 517 595 39,000  Level FlightAware ADS-B
Sun 08:56:19 AM 34.3790 30.4240 120° Southeast 517 595 39,000  Level FlightAware ADS-B
Sun 08:56:59 AM 34.3310 30.5240 120° Southeast 517 595 39,000  Level FlightAware ADS-B
Sun 08:57:34 AM 34.2880 30.6140 120° Southeast 518 596 39,000  Level FlightAware ADS-B
Sun 08:58:05 AM 34.2530 30.6860 120° Southeast 517 595 39,000  Level FlightAware ADS-B
Sun 08:58:39 AM 34.2100 30.7760 120° Southeast 515 593 39,000  Level FlightAware ADS-B
Sun 08:59:16 AM 34.1650 30.8670 121° Southeast 513 590 39,000  Level FlightAware ADS-B
Sun 08:59:51 AM 34.1220 30.9560 120° Southeast 511 588 39,000  Level FlightAware ADS-B
Sun 09:00:27 AM 34.0830 31.0340 121° Southeast 509 586 39,000  Level FlightAware ADS-B
Sun 09:01:03 AM 34.0370 31.1300 120° Southeast 508 585 39,000  Level FlightAware ADS-B
Sun 09:01:38 AM 33.9950 31.2150 121° Southeast 507 583 39,000  Level FlightAware ADS-B
Sun 09:02:14 AM 33.9510 31.3050 120° Southeast 506 582 39,000  Level FlightAware ADS-B
Sun 09:02:49 AM 33.9100 31.3870 121° Southeast 505 581 39,000  Level FlightAware ADS-B
Sun 09:03:19 AM 33.8740 31.4600 121° Southeast 505 581 39,000  Level FlightAware ADS-B
Sun 09:03:59 AM 33.8260 31.5560 121° Southeast 504 580 39,000  Level FlightAware ADS-B
Sun 09:04:34 AM 33.7840 31.6410 121° Southeast 504 580 39,000  Level FlightAware ADS-B
Sun 09:05:09 AM 33.7420 31.7250 121° Southeast 504 580 39,000  Level FlightAware ADS-B
Sun 09:05:49 AM 33.6940 31.8210 121° Southeast 504 580 39,000  Level FlightAware ADS-B
Sun 09:06:24 AM 33.6520 31.9040 121° Southeast 503 579 39,000  Level FlightAware ADS-B
Sun 09:06:59 AM 33.6100 31.9900 120° Southeast 503 579 39,000  Level FlightAware ADS-B
Sun 09:07:34 AM 33.5680 32.0720 122° Southeast 504 580 39,000  Level FlightAware ADS-B
Sun 09:08:09 AM 33.5270 32.1530 121° Southeast 503 579 39,000  Level FlightAware ADS-B
Sun 09:08:44 AM 33.4840 32.2390 121° Southeast 503 579 39,000  Level FlightAware ADS-B
Sun 09:09:21 AM 33.4410 32.3220 122° Southeast 502 578 39,000 -600 Level FlightAware ADS-B
Sun 09:09:54 AM 33.4000 32.4050 121° Southeast 502 578 38,300 -1,324 Descending FlightAware ADS-B
Sun 09:10:29 AM 33.3580 32.4860 122° Southeast 504 580 37,500 -600 Descending FlightAware ADS-B
Sun 09:11:14 AM 33.3120 32.5770 121° Southeast 504 580 37,500 -1,600 Level FlightAware ADS-B
Sun 09:11:44 AM 33.2670 32.6650 121° Southeast 492 566 35,500 -3,138 Descending FlightAware ADS-B
Sun 09:12:19 AM 33.2270 32.7440 121° Southeast 488 562 34,100 -2,320 Descending FlightAware ADS-B
Sun 09:12:59 AM 33.1820 32.8310 122° Southeast 480 552 32,600 -2,167 Descending FlightAware ADS-B
Sun 09:13:31 AM 33.1460 32.8990 122° Southeast 480 552 31,500 -2,182 Descending FlightAware ADS-B
Sun 09:14:05 AM 33.1050 32.9790 121° Southeast 467 537 30,200 -2,197 Descending FlightAware ADS-B
Sun 09:14:42 AM 33.0590 33.0680 122° Southeast 457 526 28,900 -2,000 Descending FlightAware ADS-B
Sun 09:15:17 AM 33.0220 33.1380 122° Southeast 445 512 27,800 -1,853 Descending FlightAware ADS-B
Sun 09:15:50 AM 32.9870 33.2080 121° Southeast 433 498 26,800 -1,859 Descending FlightAware ADS-B
Sun 09:16:28 AM 32.9470 33.2840 122° Southeast 420 483 25,600 -1,946 Descending FlightAware ADS-B
Sun 09:17:04 AM 32.9070 33.3510 125° Southeast 414 476 24,400 -2,057 Descending FlightAware ADS-B
Sun 09:17:38 AM 32.8680 33.4150 126° Southeast 409 471 23,200 -1,971 Descending FlightAware ADS-B
Sun 09:18:14 AM 32.8280 33.4780 127° Southeast 400 460 22,100 -1,739 Descending FlightAware ADS-B
Sun 09:18:47 AM 32.7940 33.5360 125° Southeast 389 448 21,200 -1,676 Descending FlightAware ADS-B
Sun 09:19:22 AM 32.7570 33.5960 126° Southeast 380 437 20,200 -1,606 Descending FlightAware ADS-B
Sun 09:19:58 AM 32.7220 33.6550 125° Southeast 372 428 19,300 -1,583 Descending FlightAware ADS-B
Sun 09:20:34 AM 32.6830 33.7190 126° Southeast 388 447 18,300 -1,588 Descending FlightAware ADS-B
Sun 09:21:06 AM 32.6490 33.7760 125° Southeast 396 456 17,500 -1,588 Descending FlightAware ADS-B
Sun 09:21:42 AM 32.6120 33.8390 125° Southeast 383 441 16,500 -1,588 Descending FlightAware ADS-B
Sun 09:22:14 AM 32.5790 33.8920 126° Southeast 371 427 15,700 -1,500 Descending FlightAware ADS-B
Sun 09:22:50 AM 32.5440 33.9470 127° Southeast 361 415 14,800 -1,823 Descending FlightAware ADS-B
Sun 09:23:33 AM 32.5020 34.0180 125° Southeast 367 422 13,300 -1,725 Descending FlightAware ADS-B
Sun 09:24:10 AM 32.4630 34.0800 127° Southeast 369 425 12,500 -1,068 Descending FlightAware ADS-B
Sun 09:24:46 AM 32.4280 34.1380 126° Southeast 364 419 12,000 -1,286 Descending FlightAware ADS-B
Sun 09:25:20 AM 32.3950 34.1940 125° Southeast 358 412 11,000 -1,457 Descending FlightAware ADS-B
Sun 09:25:56 AM 32.3610 34.2480 127° Southeast 356 410 10,300 -1,065 Descending FlightAware ADS-B
Sun 09:26:22 AM 32.3350 34.2900 126° Southeast 355 409 9,900 -462 Descending FlightAware ADS-B
Sun 09:27:01 AM 32.3010 34.3460 126° Southeast 354 407 9,800 -724 Descending FlightAware ADS-B
Sun 09:27:20 AM 32.2800 34.3800 126° Southeast 328 377 9,200 -1,448 Descending FlightAware ADS-B
Sun 09:27:30 AM 32.2710 34.3930 129° Southeast 321 369 9,100 -686 Descending FlightAware ADS-B
Sun 09:27:55 AM 32.2520 34.4250 125° Southeast 307 353 8,800 -421 Descending FlightAware ADS-B
Sun 09:28:27 AM 32.2270 34.4660 126° Southeast 303 349 8,700 -107 Descending FlightAware ADS-B
Sun 09:28:51 AM 32.2100 34.4930 127° Southeast 303 349 8,700  Level FlightAware ADS-B
Sun 09:29:15 AM 32.1940 34.5210 124° Southeast 303 349 8,700  Level FlightAware ADS-B
Sun 09:29:39 AM 32.1770 34.5480 127° Southeast 303 349 8,700  Level FlightAware ADS-B
Sun 09:32:00 AM 32.0000 34.8667 131° Southeast  Level FlightAware Approximate
Sun 09:33:00 AM 32.0095 34.8769 131° Southeast  Level Estimated
Sun 09:34:00 AM 32.0095 34.8769 131° Southeast  Level Estimated
Sun 09:35:00 AM 32.0095 34.8769 131° Southeast  Level Estimated
Sun 09:36:00 AM 32.0095 34.8769 131° Southeast  Level Estimated
Sun 09:37:00 AM 32.0095 34.8769 131° Southeast  Level Estimated
Sun 09:38:00 AM 32.0095 34.8769 131° Southeast  Level Estimated

Login

Don't have an account? Register now (free) for customized features, flight alerts, and more!